DKH1639 ZSNJ-VTSP
Flight info
| Callsign | DKH1639 |
|---|---|
| Flight time | N/A |
| Altitude | 34100 |
| Route | TES52X TESIG A470 DUBGO W134 ELNEX A599 PLT W19 NOMAR W18 UBLIM/K0852S1100 W18 NLG W23 ZUH R200 BIGRO G221 SAMAS A202 ASSAD/N0453F360 |
| Aircraft | A320/M-SDE3FGHIRWY/LB1 |
Departure
| Time | 2026-05-05 02:22 |
|---|---|
| Airport | Nanjing Lukou International Airport (ZSNJ) |
Arrival
| Time | N/A |
|---|---|
| Airport | Phuket International Airport (VTSP) |
| Time | Latitude | Longitude | Altitude | Speed | Heading |
|---|---|---|---|---|---|
| 2026-05-05 01:51 | 31.73460 | 118.87508 | 58 ft | 0 kts | 148° |
| 2026-05-05 02:11 | 31.73461 | 118.87507 | 58 ft | 2 kts | 148° |
| 2026-05-05 02:11 | 31.73474 | 118.87497 | 54 ft | 2 kts | 148° |
| 2026-05-05 02:12 | 31.73488 | 118.87487 | 54 ft | 2 kts | 147° |
| 2026-05-05 02:12 | 31.73511 | 118.87460 | 51 ft | 2 kts | 88° |
| 2026-05-05 02:12 | 31.73507 | 118.87441 | 53 ft | 2 kts | 59° |
| 2026-05-05 02:13 | 31.73502 | 118.87430 | 54 ft | 1 kts | 57° |
| 2026-05-05 02:13 | 31.73501 | 118.87430 | 54 ft | 0 kts | 57° |
| 2026-05-05 02:16 | 31.73503 | 118.87433 | 53 ft | 2 kts | 57° |
| 2026-05-05 02:16 | 31.73518 | 118.87461 | 53 ft | 6 kts | 57° |
| 2026-05-05 02:17 | 31.73549 | 118.87517 | 51 ft | 10 kts | 58° |
| 2026-05-05 02:17 | 31.73588 | 118.87592 | 58 ft | 7 kts | 59° |
| 2026-05-05 02:17 | 31.73570 | 118.87653 | 54 ft | 11 kts | 145° |
| 2026-05-05 02:17 | 31.73500 | 118.87705 | 56 ft | 14 kts | 147° |
| 2026-05-05 02:18 | 31.73410 | 118.87771 | 52 ft | 16 kts | 147° |
| 2026-05-05 02:18 | 31.73314 | 118.87842 | 57 ft | 17 kts | 148° |
| 2026-05-05 02:18 | 31.73213 | 118.87916 | 57 ft | 17 kts | 148° |
| 2026-05-05 02:18 | 31.73203 | 118.87924 | 57 ft | 0 kts | 148° |
| 2026-05-05 02:19 | 31.73196 | 118.87929 | 54 ft | 3 kts | 148° |
| 2026-05-05 02:19 | 31.73165 | 118.87952 | 56 ft | 7 kts | 148° |
| 2026-05-05 02:19 | 31.73113 | 118.87990 | 53 ft | 4 kts | 148° |
| 2026-05-05 02:20 | 31.73069 | 118.88000 | 53 ft | 9 kts | 192° |
| 2026-05-05 02:20 | 31.73022 | 118.87940 | 51 ft | 6 kts | 238° |
| 2026-05-05 02:20 | 31.73021 | 118.87939 | 51 ft | 0 kts | 238° |
| 2026-05-05 02:20 | 31.73020 | 118.87936 | 51 ft | 3 kts | 238° |
| 2026-05-05 02:21 | 31.72906 | 118.87723 | 50 ft | 66 kts | 237° |
| 2026-05-05 02:21 | 31.72548 | 118.87055 | 60 ft | 124 kts | 238° |
| 2026-05-05 02:21 | 31.72002 | 118.86035 | 84 ft | 166 kts | 237° |
| 2026-05-05 02:21 | 31.71384 | 118.84890 | 626 ft | 166 kts | 236° |
| 2026-05-05 02:22 | 31.70760 | 118.83744 | 1239 ft | 167 kts | 237° |
| 2026-05-05 02:22 | 31.70141 | 118.82601 | 1944 ft | 165 kts | 236° |
| 2026-05-05 02:22 | 31.69528 | 118.81468 | 2554 ft | 164 kts | 236° |
| 2026-05-05 02:22 | 31.68920 | 118.80333 | 3186 ft | 165 kts | 236° |
| 2026-05-05 02:23 | 31.68280 | 118.79146 | 3558 ft | 183 kts | 236° |
| 2026-05-05 02:23 | 31.67641 | 118.77759 | 3784 ft | 206 kts | 250° |
| 2026-05-05 02:23 | 31.67498 | 118.75961 | 4040 ft | 235 kts | 266° |
| 2026-05-05 02:23 | 31.67492 | 118.74649 | 4259 ft | 251 kts | 266° |
| 2026-05-05 02:24 | 31.67477 | 118.72523 | 4724 ft | 267 kts | 266° |
| 2026-05-05 02:24 | 31.67457 | 118.70314 | 5441 ft | 274 kts | 267° |
| 2026-05-05 02:24 | 31.67437 | 118.68057 | 6201 ft | 279 kts | 267° |
| 2026-05-05 02:24 | 31.67415 | 118.65764 | 6952 ft | 283 kts | 268° |
| 2026-05-05 02:25 | 31.67391 | 118.63447 | 7697 ft | 285 kts | 267° |
| 2026-05-05 02:25 | 31.67366 | 118.61117 | 8462 ft | 286 kts | 268° |
| 2026-05-05 02:25 | 31.67336 | 118.58773 | 9271 ft | 288 kts | 268° |
| 2026-05-05 02:25 | 31.67301 | 118.56420 | 10051 ft | 289 kts | 268° |
| 2026-05-05 02:26 | 31.67260 | 118.54007 | 10416 ft | 306 kts | 268° |
| 2026-05-05 02:26 | 31.67214 | 118.51382 | 10564 ft | 328 kts | 268° |
| 2026-05-05 02:26 | 31.67168 | 118.48690 | 11000 ft | 338 kts | 269° |
| 2026-05-05 02:26 | 31.67125 | 118.45916 | 11659 ft | 341 kts | 269° |
| 2026-05-05 02:27 | 31.67083 | 118.43080 | 12350 ft | 344 kts | 269° |
| 2026-05-05 02:27 | 31.67041 | 118.40267 | 13037 ft | 346 kts | 269° |
| 2026-05-05 02:27 | 31.66998 | 118.37432 | 13746 ft | 348 kts | 269° |
| 2026-05-05 02:27 | 31.66953 | 118.34590 | 14362 ft | 350 kts | 269° |
| 2026-05-05 02:28 | 31.66909 | 118.31726 | 14928 ft | 353 kts | 269° |
| 2026-05-05 02:28 | 31.66863 | 118.28875 | 15477 ft | 356 kts | 269° |
| 2026-05-05 02:28 | 31.66814 | 118.25922 | 16034 ft | 359 kts | 269° |
| 2026-05-05 02:28 | 31.66765 | 118.22984 | 16564 ft | 362 kts | 269° |
| 2026-05-05 02:29 | 31.66713 | 118.20016 | 17107 ft | 365 kts | 269° |
| 2026-05-05 02:29 | 31.66623 | 118.17029 | 17639 ft | 368 kts | 265° |
| 2026-05-05 02:29 | 31.66336 | 118.14029 | 18167 ft | 372 kts | 264° |
| 2026-05-05 02:29 | 31.66043 | 118.11002 | 18638 ft | 375 kts | 264° |
| 2026-05-05 02:30 | 31.65752 | 118.07952 | 19100 ft | 378 kts | 264° |
| 2026-05-05 02:30 | 31.65459 | 118.04879 | 19573 ft | 380 kts | 264° |
| 2026-05-05 02:30 | 31.65163 | 118.01778 | 20048 ft | 383 kts | 264° |
| 2026-05-05 02:30 | 31.64866 | 117.98660 | 20517 ft | 386 kts | 264° |
| 2026-05-05 02:31 | 31.64565 | 117.95522 | 20985 ft | 389 kts | 264° |
| 2026-05-05 02:31 | 31.64259 | 117.92359 | 21454 ft | 391 kts | 264° |
| 2026-05-05 02:31 | 31.63951 | 117.89176 | 21902 ft | 394 kts | 264° |
| 2026-05-05 02:31 | 31.63638 | 117.85966 | 22353 ft | 397 kts | 264° |
| 2026-05-05 02:32 | 31.63324 | 117.82744 | 22785 ft | 399 kts | 264° |
| 2026-05-05 02:32 | 31.63007 | 117.79493 | 23214 ft | 402 kts | 264° |
| 2026-05-05 02:32 | 31.62688 | 117.76227 | 23612 ft | 404 kts | 264° |
| 2026-05-05 02:32 | 31.62365 | 117.72937 | 23950 ft | 407 kts | 264° |
| 2026-05-05 02:33 | 31.62040 | 117.69637 | 24288 ft | 408 kts | 264° |
| 2026-05-05 02:33 | 31.61713 | 117.66324 | 24624 ft | 410 kts | 264° |
| 2026-05-05 02:33 | 31.61428 | 117.62992 | 24947 ft | 411 kts | 269° |
| 2026-05-05 02:33 | 31.61583 | 117.59648 | 25263 ft | 412 kts | 279° |
| 2026-05-05 02:34 | 31.62278 | 117.56392 | 25573 ft | 413 kts | 290° |
| 2026-05-05 02:34 | 31.63485 | 117.53329 | 25880 ft | 415 kts | 300° |
| 2026-05-05 02:34 | 31.65112 | 117.50528 | 26181 ft | 417 kts | 305° |
| 2026-05-05 02:34 | 31.66811 | 117.47755 | 26488 ft | 419 kts | 305° |
| 2026-05-05 02:35 | 31.68511 | 117.44973 | 26791 ft | 420 kts | 305° |
| 2026-05-05 02:35 | 31.70214 | 117.42175 | 27081 ft | 422 kts | 304° |
| 2026-05-05 02:35 | 31.71919 | 117.39363 | 27371 ft | 423 kts | 304° |
| 2026-05-05 02:35 | 31.73598 | 117.36515 | 27654 ft | 425 kts | 300° |
| 2026-05-05 02:36 | 31.74876 | 117.33390 | 27929 ft | 426 kts | 289° |
| 2026-05-05 02:36 | 31.75599 | 117.30019 | 28192 ft | 427 kts | 278° |
| 2026-05-05 02:36 | 31.75732 | 117.26527 | 28451 ft | 430 kts | 266° |
| 2026-05-05 02:36 | 31.75258 | 117.23056 | 28696 ft | 433 kts | 255° |
| 2026-05-05 02:37 | 31.74286 | 117.19700 | 28940 ft | 435 kts | 251° |
| 2026-05-05 02:37 | 31.73248 | 117.16349 | 29191 ft | 437 kts | 251° |
| 2026-05-05 02:37 | 31.72208 | 117.12998 | 29426 ft | 438 kts | 251° |
| 2026-05-05 02:37 | 31.71164 | 117.09627 | 29648 ft | 440 kts | 251° |
| 2026-05-05 02:38 | 31.70118 | 117.06250 | 29882 ft | 441 kts | 251° |
| 2026-05-05 02:38 | 31.69068 | 117.02859 | 30089 ft | 442 kts | 251° |
| 2026-05-05 02:38 | 31.68015 | 116.99468 | 30321 ft | 442 kts | 251° |
| 2026-05-05 02:38 | 31.66956 | 116.96092 | 30598 ft | 440 kts | 251° |
| 2026-05-05 02:39 | 31.65893 | 116.92726 | 30877 ft | 439 kts | 251° |
| 2026-05-05 02:39 | 31.64830 | 116.89380 | 31154 ft | 437 kts | 251° |
| 2026-05-05 02:39 | 31.63769 | 116.86044 | 31429 ft | 436 kts | 251° |
| 2026-05-05 02:39 | 31.62709 | 116.82718 | 31702 ft | 434 kts | 251° |
| 2026-05-05 02:40 | 31.61654 | 116.79410 | 31977 ft | 433 kts | 251° |
| 2026-05-05 02:40 | 31.60586 | 116.76067 | 32238 ft | 431 kts | 251° |
| 2026-05-05 02:40 | 31.59548 | 116.72816 | 32516 ft | 430 kts | 251° |
| 2026-05-05 02:40 | 31.58489 | 116.69494 | 32784 ft | 429 kts | 251° |
| 2026-05-05 02:41 | 31.57449 | 116.66226 | 33047 ft | 427 kts | 252° |
| 2026-05-05 02:41 | 31.56413 | 116.62962 | 33306 ft | 426 kts | 252° |
| 2026-05-05 02:41 | 31.55380 | 116.59712 | 33565 ft | 425 kts | 252° |
| 2026-05-05 02:41 | 31.54347 | 116.56474 | 33824 ft | 424 kts | 252° |
| 2026-05-05 02:42 | 31.53312 | 116.53242 | 34035 ft | 423 kts | 252° |
| 2026-05-05 02:42 | 31.51253 | 116.46830 | 34106 ft | 418 kts | 252° |
| 2026-05-05 02:43 | 31.47106 | 116.33971 | 34106 ft | 417 kts | 252° |
| 2026-05-05 02:44 | 31.45061 | 116.27607 | 34110 ft | 418 kts | 252° |
| 2026-05-05 02:44 | 31.43009 | 116.21256 | 34110 ft | 418 kts | 252° |
| 2026-05-05 02:45 | 31.40940 | 116.14884 | 34107 ft | 418 kts | 252° |
| 2026-05-05 02:45 | 31.38874 | 116.08528 | 34105 ft | 418 kts | 251° |
| 2026-05-05 02:46 | 31.36811 | 116.02177 | 34103 ft | 418 kts | 252° |
| 2026-05-05 02:46 | 31.34740 | 115.95819 | 34107 ft | 418 kts | 252° |
| 2026-05-05 02:47 | 31.32662 | 115.89465 | 34106 ft | 418 kts | 252° |
| 2026-05-05 02:47 | 31.30595 | 115.83106 | 34110 ft | 418 kts | 252° |
| 2026-05-05 02:48 | 31.28567 | 115.76734 | 34106 ft | 418 kts | 252° |
| 2026-05-05 02:48 | 31.26540 | 115.70359 | 34106 ft | 419 kts | 252° |
| 2026-05-05 02:49 | 31.24500 | 115.63978 | 34106 ft | 419 kts | 252° |
| 2026-05-05 02:49 | 31.22454 | 115.57608 | 34105 ft | 419 kts | 252° |
| 2026-05-05 02:50 | 31.20400 | 115.51242 | 34104 ft | 419 kts | 252° |
| 2026-05-05 02:50 | 31.18342 | 115.44875 | 34099 ft | 419 kts | 252° |
| 2026-05-05 02:51 | 31.16285 | 115.38516 | 34097 ft | 419 kts | 252° |
| 2026-05-05 02:51 | 31.14214 | 115.32105 | 34096 ft | 419 kts | 252° |
| 2026-05-05 02:52 | 31.12151 | 115.25739 | 34093 ft | 419 kts | 252° |
| 2026-05-05 02:52 | 31.10132 | 115.19354 | 34095 ft | 420 kts | 253° |
| 2026-05-05 02:53 | 31.08118 | 115.12965 | 34091 ft | 420 kts | 253° |
| 2026-05-05 02:53 | 31.06084 | 115.06578 | 34086 ft | 420 kts | 252° |
| 2026-05-05 02:54 | 31.04384 | 115.01271 | 34090 ft | 420 kts | 252° |
| 2026-05-05 02:54 | 31.02333 | 114.94891 | 34088 ft | 421 kts | 253° |
| 2026-05-05 02:55 | 31.00282 | 114.88500 | 34083 ft | 421 kts | 253° |
| 2026-05-05 02:55 | 30.98222 | 114.82118 | 34096 ft | 421 kts | 252° |
| 2026-05-05 02:56 | 30.96162 | 114.75729 | 34085 ft | 421 kts | 252° |
| 2026-05-05 02:56 | 30.94104 | 114.69344 | 34091 ft | 421 kts | 253° |
| 2026-05-05 02:57 | 30.92044 | 114.62956 | 34091 ft | 421 kts | 253° |
| 2026-05-05 02:57 | 30.89970 | 114.56568 | 34090 ft | 422 kts | 253° |
| 2026-05-05 02:58 | 30.87897 | 114.50181 | 34085 ft | 422 kts | 253° |
| 2026-05-05 02:58 | 30.85823 | 114.43791 | 34097 ft | 422 kts | 253° |
| 2026-05-05 02:59 | 30.83740 | 114.37350 | 34090 ft | 422 kts | 253° |
| 2026-05-05 02:59 | 30.81067 | 114.31249 | 34091 ft | 431 kts | 236° |
| 2026-05-05 02:59 | 30.79044 | 114.28713 | 34087 ft | 437 kts | 225° |
| 2026-05-05 03:00 | 30.76530 | 114.26605 | 34093 ft | 444 kts | 214° |
| 2026-05-05 03:00 | 30.70917 | 114.23484 | 34088 ft | 448 kts | 210° |
| 2026-05-05 03:01 | 30.65262 | 114.20423 | 34077 ft | 448 kts | 210° |
| 2026-05-05 03:01 | 30.59607 | 114.17358 | 34079 ft | 449 kts | 210° |
| 2026-05-05 03:02 | 30.53949 | 114.14300 | 34074 ft | 448 kts | 210° |
| 2026-05-05 03:02 | 30.48296 | 114.11249 | 34071 ft | 448 kts | 210° |
| 2026-05-05 03:03 | 30.42641 | 114.08191 | 34068 ft | 448 kts | 210° |
| 2026-05-05 03:03 | 30.36996 | 114.05132 | 34068 ft | 448 kts | 210° |
| 2026-05-05 03:04 | 30.31344 | 114.02090 | 34070 ft | 448 kts | 210° |
| 2026-05-05 03:04 | 30.25701 | 113.99055 | 34067 ft | 447 kts | 210° |
| 2026-05-05 03:05 | 30.20051 | 113.96027 | 34067 ft | 447 kts | 210° |
| 2026-05-05 03:05 | 30.14404 | 113.93013 | 34075 ft | 447 kts | 210° |
| 2026-05-05 03:06 | 30.08757 | 113.89998 | 34080 ft | 447 kts | 210° |
| 2026-05-05 03:06 | 30.03113 | 113.86977 | 34075 ft | 447 kts | 211° |
| 2026-05-05 03:07 | 29.97463 | 113.83963 | 34080 ft | 447 kts | 211° |
| 2026-05-05 03:07 | 29.91815 | 113.80961 | 34084 ft | 447 kts | 211° |
| 2026-05-05 03:08 | 29.86405 | 113.77556 | 34080 ft | 438 kts | 223° |
| 2026-05-05 03:08 | 29.81901 | 113.72938 | 34081 ft | 433 kts | 228° |
| 2026-05-05 03:09 | 29.77466 | 113.68252 | 34087 ft | 433 kts | 228° |
| 2026-05-05 03:09 | 29.73011 | 113.63568 | 34088 ft | 434 kts | 228° |
| 2026-05-05 03:10 | 29.68564 | 113.58882 | 34088 ft | 434 kts | 228° |
| 2026-05-05 03:10 | 29.64110 | 113.54201 | 34087 ft | 434 kts | 228° |
| 2026-05-05 03:11 | 29.59649 | 113.49528 | 34087 ft | 434 kts | 228° |
| 2026-05-05 03:11 | 29.55189 | 113.44860 | 34091 ft | 434 kts | 228° |
| 2026-05-05 03:12 | 29.50731 | 113.40189 | 34091 ft | 434 kts | 228° |
| 2026-05-05 03:12 | 29.46273 | 113.35530 | 34092 ft | 434 kts | 228° |
| 2026-05-05 03:13 | 29.41813 | 113.30874 | 34096 ft | 433 kts | 228° |
| 2026-05-05 03:13 | 29.37325 | 113.26193 | 34093 ft | 433 kts | 228° |
| 2026-05-05 03:14 | 29.32577 | 113.21868 | 34090 ft | 439 kts | 222° |
| 2026-05-05 03:14 | 29.27593 | 113.17821 | 34093 ft | 439 kts | 221° |
| 2026-05-05 03:15 | 29.22610 | 113.13777 | 34097 ft | 439 kts | 222° |
| 2026-05-05 03:15 | 29.17626 | 113.09724 | 34097 ft | 439 kts | 222° |
| 2026-05-05 03:16 | 29.12636 | 113.05682 | 34104 ft | 440 kts | 222° |
| 2026-05-05 03:16 | 29.07645 | 113.01645 | 34104 ft | 440 kts | 222° |
| 2026-05-05 03:17 | 29.02653 | 112.97609 | 34110 ft | 439 kts | 222° |
| 2026-05-05 03:17 | 28.97666 | 112.93576 | 34102 ft | 439 kts | 222° |
| 2026-05-05 03:18 | 28.92679 | 112.89550 | 34097 ft | 439 kts | 223° |
| 2026-05-05 03:18 | 28.87693 | 112.85536 | 34107 ft | 439 kts | 223° |
| 2026-05-05 03:19 | 28.80210 | 112.79523 | 34102 ft | 438 kts | 223° |
| 2026-05-05 03:19 | 28.75233 | 112.75521 | 34097 ft | 438 kts | 223° |
| 2026-05-05 03:20 | 28.70255 | 112.71527 | 34097 ft | 438 kts | 223° |
| 2026-05-05 03:20 | 28.65273 | 112.67544 | 34092 ft | 437 kts | 223° |
| 2026-05-05 03:21 | 28.60300 | 112.63554 | 34094 ft | 437 kts | 224° |
| 2026-05-05 03:21 | 28.55328 | 112.59571 | 34092 ft | 437 kts | 224° |
| 2026-05-05 03:22 | 28.50350 | 112.55598 | 34094 ft | 437 kts | 224° |
| 2026-05-05 03:22 | 28.45372 | 112.51629 | 34097 ft | 437 kts | 224° |
| 2026-05-05 03:23 | 28.40393 | 112.47665 | 34098 ft | 437 kts | 224° |
| 2026-05-05 03:23 | 28.35420 | 112.43702 | 34097 ft | 436 kts | 224° |
| 2026-05-05 03:24 | 28.30454 | 112.39748 | 34097 ft | 436 kts | 224° |
| 2026-05-05 03:24 | 28.25486 | 112.35801 | 34095 ft | 436 kts | 224° |
| 2026-05-05 03:25 | 28.20511 | 112.31861 | 34095 ft | 436 kts | 224° |
| 2026-05-05 03:25 | 28.15537 | 112.27915 | 34110 ft | 436 kts | 225° |
| 2026-05-05 03:26 | 28.10600 | 112.23927 | 34099 ft | 436 kts | 225° |
| 2026-05-05 03:26 | 28.05655 | 112.19948 | 34098 ft | 438 kts | 224° |
| 2026-05-05 03:27 | 28.00437 | 112.16228 | 34109 ft | 442 kts | 220° |
| 2026-05-05 03:27 | 27.95127 | 112.12702 | 34111 ft | 442 kts | 220° |
| 2026-05-05 03:28 | 27.89862 | 112.09123 | 34105 ft | 441 kts | 221° |
| 2026-05-05 03:28 | 27.84648 | 112.05469 | 34110 ft | 441 kts | 222° |
| 2026-05-05 03:29 | 27.79451 | 112.01803 | 34110 ft | 440 kts | 222° |
| 2026-05-05 03:29 | 27.75125 | 111.98766 | 34119 ft | 440 kts | 222° |
| 2026-05-05 03:30 | 27.69037 | 111.94517 | 34123 ft | 439 kts | 221° |
| 2026-05-05 03:30 | 27.64716 | 111.91514 | 34129 ft | 439 kts | 221° |
| 2026-05-05 03:31 | 27.59531 | 111.87911 | 34133 ft | 437 kts | 222° |
| 2026-05-05 03:31 | 27.54364 | 111.84310 | 34136 ft | 436 kts | 222° |
| 2026-05-05 03:32 | 27.49202 | 111.80720 | 34136 ft | 436 kts | 222° |
| 2026-05-05 03:32 | 27.44046 | 111.77147 | 34135 ft | 434 kts | 222° |
| 2026-05-05 03:33 | 27.38913 | 111.73594 | 34137 ft | 432 kts | 222° |
| 2026-05-05 03:33 | 27.33799 | 111.70054 | 34136 ft | 431 kts | 222° |
| 2026-05-05 03:34 | 27.28693 | 111.66516 | 34130 ft | 431 kts | 222° |
| 2026-05-05 03:34 | 27.23591 | 111.62995 | 34129 ft | 430 kts | 222° |
| 2026-05-05 03:35 | 27.18458 | 111.59458 | 34131 ft | 430 kts | 222° |
| 2026-05-05 03:35 | 27.13375 | 111.56011 | 34128 ft | 430 kts | 221° |
| 2026-05-05 03:36 | 27.08171 | 111.52600 | 34129 ft | 430 kts | 220° |
| 2026-05-05 03:36 | 27.02996 | 111.49232 | 34132 ft | 429 kts | 220° |
| 2026-05-05 03:37 | 26.97845 | 111.45858 | 34138 ft | 429 kts | 220° |
| 2026-05-05 03:37 | 26.92703 | 111.42474 | 34133 ft | 428 kts | 220° |
| 2026-05-05 03:38 | 26.87659 | 111.38981 | 34125 ft | 425 kts | 223° |
| 2026-05-05 03:38 | 26.82756 | 111.35313 | 34111 ft | 423 kts | 224° |
| 2026-05-05 03:39 | 26.77864 | 111.31633 | 34113 ft | 424 kts | 223° |
| 2026-05-05 03:39 | 26.72926 | 111.27998 | 34107 ft | 425 kts | 223° |
| 2026-05-05 03:40 | 26.67974 | 111.24375 | 34111 ft | 426 kts | 223° |
| 2026-05-05 03:40 | 26.63011 | 111.20747 | 34108 ft | 426 kts | 223° |
| 2026-05-05 03:41 | 26.58049 | 111.17128 | 34102 ft | 426 kts | 223° |
| 2026-05-05 03:41 | 26.53001 | 111.13598 | 34110 ft | 429 kts | 221° |
| 2026-05-05 03:42 | 26.47883 | 111.10157 | 34114 ft | 430 kts | 220° |
| 2026-05-05 03:42 | 26.42755 | 111.06712 | 34099 ft | 430 kts | 221° |
| 2026-05-05 03:43 | 26.37648 | 111.03233 | 34098 ft | 430 kts | 221° |
| 2026-05-05 03:43 | 26.32551 | 110.99740 | 34096 ft | 430 kts | 221° |
| 2026-05-05 03:44 | 26.27431 | 110.96257 | 34099 ft | 431 kts | 221° |
| 2026-05-05 03:44 | 26.22305 | 110.92786 | 34100 ft | 431 kts | 220° |
| 2026-05-05 03:45 | 26.17192 | 110.89315 | 34099 ft | 431 kts | 220° |
| 2026-05-05 03:45 | 26.12053 | 110.85832 | 34111 ft | 433 kts | 220° |
| 2026-05-05 03:46 | 26.06907 | 110.82352 | 34116 ft | 433 kts | 220° |
| 2026-05-05 03:46 | 26.01767 | 110.78865 | 34120 ft | 432 kts | 220° |
| 2026-05-05 03:47 | 25.96651 | 110.75385 | 34119 ft | 430 kts | 221° |
| 2026-05-05 03:47 | 25.91536 | 110.71915 | 34114 ft | 431 kts | 221° |
| 2026-05-05 03:48 | 25.86409 | 110.68441 | 34128 ft | 432 kts | 220° |
| 2026-05-05 03:48 | 25.81278 | 110.64973 | 34146 ft | 431 kts | 220° |
| 2026-05-05 03:49 | 25.76166 | 110.61512 | 34135 ft | 430 kts | 220° |
| 2026-05-05 03:49 | 25.71038 | 110.58020 | 34130 ft | 429 kts | 220° |
| 2026-05-05 03:50 | 25.65989 | 110.54501 | 34121 ft | 428 kts | 220° |
| 2026-05-05 03:50 | 25.60950 | 110.50981 | 34118 ft | 428 kts | 221° |
| 2026-05-05 03:51 | 25.55901 | 110.47479 | 34114 ft | 428 kts | 221° |
| 2026-05-05 03:51 | 25.50916 | 110.43892 | 34116 ft | 426 kts | 222° |
| 2026-05-05 03:52 | 25.46007 | 110.40223 | 34119 ft | 426 kts | 223° |
| 2026-05-05 03:52 | 25.41090 | 110.36565 | 34117 ft | 426 kts | 222° |
| 2026-05-05 03:53 | 25.36172 | 110.32911 | 34123 ft | 426 kts | 222° |
| 2026-05-05 03:53 | 25.31261 | 110.29245 | 34129 ft | 426 kts | 222° |
| 2026-05-05 03:54 | 25.26352 | 110.25582 | 34136 ft | 426 kts | 222° |
| 2026-05-05 03:54 | 25.21432 | 110.21931 | 34143 ft | 426 kts | 222° |
| 2026-05-05 03:55 | 25.16515 | 110.18285 | 34145 ft | 425 kts | 222° |
| 2026-05-05 03:55 | 25.11617 | 110.14626 | 34146 ft | 425 kts | 222° |
| 2026-05-05 03:56 | 25.06717 | 110.10969 | 34142 ft | 425 kts | 222° |
| 2026-05-05 03:56 | 25.01828 | 110.07324 | 34136 ft | 424 kts | 222° |
| 2026-05-05 03:57 | 24.96940 | 110.03681 | 34127 ft | 424 kts | 222° |
| 2026-05-05 03:57 | 24.92017 | 110.00020 | 34125 ft | 424 kts | 222° |
| 2026-05-05 03:58 | 24.87120 | 109.96379 | 34119 ft | 424 kts | 222° |
| 2026-05-05 03:58 | 24.82225 | 109.92749 | 34119 ft | 424 kts | 222° |
| 2026-05-05 03:59 | 24.77323 | 109.89119 | 34115 ft | 424 kts | 222° |
| 2026-05-05 03:59 | 24.72427 | 109.85489 | 34117 ft | 424 kts | 222° |
| 2026-05-05 04:00 | 24.67530 | 109.81870 | 34114 ft | 424 kts | 222° |
| 2026-05-05 04:00 | 24.62638 | 109.78243 | 34109 ft | 424 kts | 222° |
| 2026-05-05 04:01 | 24.57754 | 109.74601 | 34109 ft | 424 kts | 222° |
| 2026-05-05 04:01 | 24.52875 | 109.70964 | 34115 ft | 424 kts | 222° |
| 2026-05-05 04:02 | 24.47987 | 109.67335 | 34123 ft | 424 kts | 222° |
| 2026-05-05 04:02 | 24.43093 | 109.63709 | 34123 ft | 425 kts | 222° |
| 2026-05-05 04:03 | 24.38202 | 109.60078 | 34122 ft | 424 kts | 222° |
| 2026-05-05 04:03 | 24.33303 | 109.56451 | 34120 ft | 425 kts | 222° |
| 2026-05-05 04:04 | 24.28393 | 109.52834 | 34113 ft | 425 kts | 222° |
| 2026-05-05 04:04 | 24.23480 | 109.49228 | 34110 ft | 425 kts | 222° |
| 2026-05-05 04:05 | 24.18566 | 109.45616 | 34106 ft | 425 kts | 222° |
| 2026-05-05 04:05 | 24.14453 | 109.42593 | 34105 ft | 425 kts | 222° |
| 2026-05-05 04:06 | 24.09542 | 109.38982 | 34107 ft | 425 kts | 222° |
| 2026-05-05 04:06 | 24.04625 | 109.35371 | 34104 ft | 426 kts | 221° |
| 2026-05-05 04:07 | 23.99703 | 109.31760 | 34110 ft | 426 kts | 221° |
| 2026-05-05 04:07 | 23.94775 | 109.28149 | 34112 ft | 426 kts | 221° |
| 2026-05-05 04:08 | 23.89847 | 109.24539 | 34121 ft | 426 kts | 221° |
| 2026-05-05 04:08 | 23.84917 | 109.20932 | 34121 ft | 427 kts | 221° |
| 2026-05-05 04:09 | 23.79984 | 109.17328 | 34120 ft | 426 kts | 221° |
| 2026-05-05 04:09 | 23.75078 | 109.13700 | 34122 ft | 425 kts | 223° |
| 2026-05-05 04:10 | 23.70408 | 109.09798 | 34123 ft | 422 kts | 226° |
| 2026-05-05 04:10 | 23.65853 | 109.05771 | 34121 ft | 422 kts | 226° |
| 2026-05-05 04:11 | 23.61261 | 109.01782 | 34120 ft | 422 kts | 225° |
| 2026-05-05 04:11 | 23.56630 | 108.97839 | 34117 ft | 422 kts | 225° |
| 2026-05-05 04:12 | 23.51997 | 108.93906 | 34113 ft | 422 kts | 225° |
| 2026-05-05 04:12 | 23.47366 | 108.89977 | 34108 ft | 422 kts | 225° |
| 2026-05-05 04:13 | 23.42706 | 108.86023 | 34108 ft | 422 kts | 224° |
| 2026-05-05 04:13 | 23.38073 | 108.82092 | 34113 ft | 422 kts | 225° |
| 2026-05-05 04:14 | 23.33445 | 108.78154 | 34113 ft | 422 kts | 224° |
| 2026-05-05 04:14 | 23.28808 | 108.74223 | 34114 ft | 423 kts | 224° |
| 2026-05-05 04:15 | 23.24162 | 108.70301 | 34110 ft | 423 kts | 224° |
| 2026-05-05 04:15 | 23.19524 | 108.66372 | 34108 ft | 423 kts | 224° |
| 2026-05-05 04:16 | 23.14891 | 108.62438 | 34116 ft | 423 kts | 224° |
| 2026-05-05 04:16 | 23.10252 | 108.58510 | 34111 ft | 423 kts | 224° |
| 2026-05-05 04:17 | 23.05611 | 108.54583 | 34115 ft | 423 kts | 224° |
| 2026-05-05 04:17 | 23.00972 | 108.50667 | 34107 ft | 423 kts | 224° |
| 2026-05-05 04:18 | 22.96326 | 108.46750 | 34115 ft | 423 kts | 224° |
| 2026-05-05 04:18 | 22.91686 | 108.42832 | 34105 ft | 423 kts | 224° |
| 2026-05-05 04:19 | 22.87042 | 108.38911 | 34110 ft | 423 kts | 224° |
| 2026-05-05 04:19 | 22.82398 | 108.34990 | 34114 ft | 423 kts | 224° |
| 2026-05-05 04:20 | 22.77755 | 108.31082 | 34115 ft | 423 kts | 224° |
| 2026-05-05 04:20 | 22.73104 | 108.27184 | 34118 ft | 423 kts | 224° |
| 2026-05-05 04:21 | 22.68460 | 108.23287 | 34118 ft | 422 kts | 224° |
| 2026-05-05 04:21 | 22.63821 | 108.19389 | 34117 ft | 422 kts | 224° |
| 2026-05-05 04:22 | 22.59779 | 108.14897 | 34116 ft | 409 kts | 242° |
| 2026-05-05 04:22 | 22.57605 | 108.09332 | 34109 ft | 400 kts | 260° |
| 2026-05-05 04:23 | 22.56564 | 108.03424 | 34113 ft | 400 kts | 261° |
| 2026-05-05 04:23 | 22.55517 | 107.97514 | 34112 ft | 400 kts | 261° |
| 2026-05-05 04:24 | 22.54471 | 107.91600 | 34107 ft | 401 kts | 261° |
| 2026-05-05 04:25 | 22.52894 | 107.82719 | 34107 ft | 401 kts | 261° |
| 2026-05-05 04:25 | 22.51837 | 107.76795 | 34107 ft | 402 kts | 261° |
| 2026-05-05 04:26 | 22.50782 | 107.70859 | 34107 ft | 402 kts | 261° |
| 2026-05-05 04:26 | 22.49725 | 107.64925 | 34110 ft | 402 kts | 261° |
| 2026-05-05 04:27 | 22.48663 | 107.58989 | 34112 ft | 402 kts | 261° |
| 2026-05-05 04:27 | 22.47598 | 107.53051 | 34112 ft | 403 kts | 260° |
| 2026-05-05 04:28 | 22.46531 | 107.47111 | 34108 ft | 402 kts | 260° |
| 2026-05-05 04:28 | 22.45465 | 107.41174 | 34109 ft | 402 kts | 260° |
| 2026-05-05 04:29 | 22.44397 | 107.35239 | 34104 ft | 402 kts | 260° |
| 2026-05-05 04:29 | 22.43321 | 107.29308 | 34101 ft | 402 kts | 260° |
| 2026-05-05 04:30 | 22.42241 | 107.23367 | 34104 ft | 403 kts | 260° |
| 2026-05-05 04:30 | 22.41173 | 107.17416 | 34103 ft | 403 kts | 260° |
| 2026-05-05 04:31 | 22.40112 | 107.11460 | 34105 ft | 404 kts | 260° |
| 2026-05-05 04:31 | 22.39048 | 107.05504 | 34104 ft | 404 kts | 260° |
| 2026-05-05 04:32 | 22.37971 | 106.99547 | 34103 ft | 404 kts | 260° |
| 2026-05-05 04:32 | 22.36880 | 106.93551 | 34105 ft | 404 kts | 260° |
| 2026-05-05 04:33 | 22.35334 | 106.87725 | 34097 ft | 407 kts | 246° |
| 2026-05-05 04:33 | 22.33847 | 106.85114 | 34098 ft | 411 kts | 235° |
| 2026-05-05 04:33 | 22.31933 | 106.82856 | 34096 ft | 415 kts | 229° |
| 2026-05-05 04:34 | 22.27774 | 106.78449 | 34093 ft | 416 kts | 229° |
| 2026-05-05 04:34 | 22.23656 | 106.74060 | 34095 ft | 417 kts | 229° |
| 2026-05-05 04:35 | 22.19528 | 106.69666 | 34093 ft | 417 kts | 229° |
| 2026-05-05 04:35 | 22.15196 | 106.65482 | 34092 ft | 420 kts | 224° |
| 2026-05-05 04:36 | 22.10654 | 106.61510 | 34099 ft | 420 kts | 224° |
| 2026-05-05 04:36 | 22.06102 | 106.57549 | 34097 ft | 420 kts | 224° |
| 2026-05-05 04:37 | 22.01557 | 106.53588 | 34102 ft | 420 kts | 224° |
| 2026-05-05 04:37 | 21.97004 | 106.49638 | 34105 ft | 420 kts | 223° |
| 2026-05-05 04:38 | 21.92470 | 106.45673 | 34103 ft | 419 kts | 224° |
| 2026-05-05 04:38 | 21.87959 | 106.41698 | 34101 ft | 419 kts | 224° |
| 2026-05-05 04:39 | 21.83437 | 106.37720 | 34101 ft | 420 kts | 224° |
| 2026-05-05 04:39 | 21.78916 | 106.33746 | 34097 ft | 419 kts | 224° |
| 2026-05-05 04:40 | 21.74393 | 106.29773 | 34098 ft | 420 kts | 224° |
| 2026-05-05 04:40 | 21.69868 | 106.25808 | 34102 ft | 420 kts | 224° |
| 2026-05-05 04:41 | 21.66067 | 106.22495 | 34098 ft | 420 kts | 224° |
| 2026-05-05 04:41 | 21.61535 | 106.18543 | 34098 ft | 419 kts | 223° |
| 2026-05-05 04:42 | 21.57009 | 106.14586 | 34097 ft | 419 kts | 223° |
| 2026-05-05 04:42 | 21.52480 | 106.10635 | 34092 ft | 420 kts | 223° |
| 2026-05-05 04:43 | 21.47947 | 106.06681 | 34094 ft | 420 kts | 223° |
| 2026-05-05 04:43 | 21.43418 | 106.02729 | 34093 ft | 419 kts | 223° |
| 2026-05-05 04:44 | 21.38889 | 105.98782 | 34091 ft | 419 kts | 223° |
| 2026-05-05 04:44 | 21.34356 | 105.94832 | 34094 ft | 420 kts | 223° |
| 2026-05-05 04:45 | 21.29820 | 105.90888 | 34093 ft | 420 kts | 223° |
| 2026-05-05 04:45 | 21.25279 | 105.86943 | 34099 ft | 420 kts | 223° |
| 2026-05-05 04:46 | 21.21362 | 105.82422 | 34099 ft | 411 kts | 240° |
| 2026-05-05 04:46 | 21.19081 | 105.76860 | 34103 ft | 408 kts | 251° |
| 2026-05-05 04:47 | 21.17164 | 105.71142 | 34105 ft | 408 kts | 251° |
| 2026-05-05 04:47 | 21.15232 | 105.65427 | 34103 ft | 408 kts | 251° |
| 2026-05-05 04:48 | 21.13302 | 105.59718 | 34100 ft | 408 kts | 251° |
| 2026-05-05 04:48 | 21.11382 | 105.54008 | 34100 ft | 407 kts | 251° |
| 2026-05-05 04:49 | 21.09446 | 105.48268 | 34098 ft | 407 kts | 251° |
| 2026-05-05 04:49 | 21.07515 | 105.42570 | 34076 ft | 408 kts | 252° |
| 2026-05-05 04:50 | 21.05589 | 105.36880 | 34073 ft | 410 kts | 252° |
| 2026-05-05 04:50 | 21.03628 | 105.31086 | 34075 ft | 412 kts | 252° |
| 2026-05-05 04:51 | 21.01687 | 105.25355 | 34079 ft | 413 kts | 252° |
| 2026-05-05 04:51 | 20.99723 | 105.19576 | 34082 ft | 413 kts | 252° |
| 2026-05-05 04:52 | 20.97753 | 105.13789 | 34089 ft | 414 kts | 252° |
| 2026-05-05 04:52 | 20.95776 | 105.07960 | 34092 ft | 414 kts | 252° |
| 2026-05-05 04:53 | 20.93809 | 105.02166 | 34098 ft | 415 kts | 252° |
| 2026-05-05 04:53 | 20.91823 | 104.96371 | 34100 ft | 415 kts | 252° |
| 2026-05-05 04:54 | 20.89837 | 104.90573 | 34101 ft | 415 kts | 252° |
| 2026-05-05 04:54 | 20.87860 | 104.84772 | 34110 ft | 415 kts | 252° |
| 2026-05-05 04:55 | 20.85882 | 104.78975 | 34101 ft | 415 kts | 252° |
| 2026-05-05 04:55 | 20.83820 | 104.73215 | 34103 ft | 417 kts | 246° |
| 2026-05-05 04:56 | 20.80340 | 104.68233 | 34105 ft | 425 kts | 225° |
| 2026-05-05 04:56 | 20.75566 | 104.64433 | 34106 ft | 429 kts | 220° |
| 2026-05-05 04:57 | 20.70721 | 104.60709 | 34110 ft | 429 kts | 220° |
| 2026-05-05 04:57 | 20.65880 | 104.56975 | 34114 ft | 429 kts | 220° |
| 2026-05-05 04:58 | 20.61042 | 104.53243 | 34115 ft | 429 kts | 220° |
| 2026-05-05 04:58 | 20.56205 | 104.49514 | 34113 ft | 428 kts | 220° |
| 2026-05-05 04:59 | 20.51370 | 104.45792 | 34118 ft | 429 kts | 220° |
| 2026-05-05 04:59 | 20.46533 | 104.42071 | 34117 ft | 428 kts | 220° |
| 2026-05-05 05:00 | 20.41708 | 104.38362 | 34116 ft | 427 kts | 220° |
| 2026-05-05 05:00 | 20.36917 | 104.34614 | 34117 ft | 427 kts | 220° |
| 2026-05-05 05:01 | 20.32137 | 104.30841 | 34115 ft | 427 kts | 220° |
| 2026-05-05 05:01 | 20.27364 | 104.27077 | 34120 ft | 428 kts | 220° |
| 2026-05-05 05:02 | 20.22570 | 104.23316 | 34119 ft | 427 kts | 220° |
| 2026-05-05 05:02 | 20.17773 | 104.19568 | 34126 ft | 428 kts | 220° |
| 2026-05-05 05:03 | 20.12978 | 104.15820 | 34131 ft | 428 kts | 220° |
| 2026-05-05 05:03 | 20.08182 | 104.12068 | 34127 ft | 428 kts | 220° |
| 2026-05-05 05:04 | 20.03349 | 104.08295 | 34122 ft | 429 kts | 220° |
| 2026-05-05 05:04 | 19.98539 | 104.04541 | 34122 ft | 429 kts | 220° |
| 2026-05-05 05:05 | 19.93719 | 104.00792 | 34123 ft | 429 kts | 220° |
| 2026-05-05 05:05 | 19.88912 | 103.97042 | 34123 ft | 428 kts | 220° |
| 2026-05-05 05:06 | 19.84113 | 103.93293 | 34121 ft | 428 kts | 220° |
| 2026-05-05 05:06 | 19.79312 | 103.89548 | 34123 ft | 428 kts | 220° |
| 2026-05-05 05:07 | 19.74512 | 103.85816 | 34125 ft | 427 kts | 219° |
| 2026-05-05 05:07 | 19.69708 | 103.82100 | 34117 ft | 427 kts | 219° |
| 2026-05-05 05:08 | 19.64906 | 103.78382 | 34120 ft | 427 kts | 219° |
| 2026-05-05 05:08 | 19.60114 | 103.74662 | 34121 ft | 427 kts | 219° |
| 2026-05-05 05:09 | 19.55318 | 103.70935 | 34118 ft | 427 kts | 218° |
| 2026-05-05 05:09 | 19.50524 | 103.67219 | 34116 ft | 427 kts | 218° |
| 2026-05-05 05:10 | 19.45723 | 103.63507 | 34116 ft | 427 kts | 218° |
| 2026-05-05 05:10 | 19.40918 | 103.59802 | 34116 ft | 427 kts | 218° |
| 2026-05-05 05:11 | 19.36100 | 103.56110 | 34115 ft | 428 kts | 218° |
| 2026-05-05 05:11 | 19.31264 | 103.52420 | 34115 ft | 429 kts | 218° |
| 2026-05-05 05:12 | 19.26415 | 103.48732 | 34113 ft | 429 kts | 218° |
| 2026-05-05 05:12 | 19.21558 | 103.45044 | 34117 ft | 431 kts | 218° |
| 2026-05-05 05:13 | 19.16685 | 103.41337 | 34115 ft | 432 kts | 218° |
| 2026-05-05 05:13 | 19.11802 | 103.37617 | 34117 ft | 433 kts | 218° |
| 2026-05-05 05:14 | 19.06911 | 103.33895 | 34118 ft | 434 kts | 218° |
| 2026-05-05 05:14 | 19.02013 | 103.30169 | 34115 ft | 434 kts | 217° |
| 2026-05-05 05:15 | 18.97097 | 103.26436 | 34118 ft | 435 kts | 217° |
| 2026-05-05 05:15 | 18.92173 | 103.22699 | 34116 ft | 437 kts | 217° |
| 2026-05-05 05:16 | 18.87229 | 103.18955 | 34118 ft | 438 kts | 217° |
| 2026-05-05 05:16 | 18.82269 | 103.15202 | 34116 ft | 439 kts | 217° |
| 2026-05-05 05:17 | 18.78109 | 103.12048 | 34118 ft | 440 kts | 217° |
| 2026-05-05 05:17 | 18.73134 | 103.08272 | 34116 ft | 441 kts | 217° |
| 2026-05-05 05:18 | 18.68139 | 103.04500 | 34114 ft | 442 kts | 217° |
| 2026-05-05 05:18 | 18.63135 | 103.00731 | 34108 ft | 443 kts | 217° |
| 2026-05-05 05:19 | 18.58126 | 102.96954 | 34104 ft | 443 kts | 217° |
| 2026-05-05 05:19 | 18.53107 | 102.93160 | 34098 ft | 444 kts | 217° |
| 2026-05-05 05:20 | 18.48074 | 102.89366 | 34095 ft | 445 kts | 217° |
| 2026-05-05 05:20 | 18.43030 | 102.85572 | 34097 ft | 446 kts | 217° |
| 2026-05-05 05:21 | 18.37986 | 102.81763 | 34093 ft | 446 kts | 217° |
| 2026-05-05 05:21 | 18.32938 | 102.77957 | 34092 ft | 447 kts | 217° |
| 2026-05-05 05:22 | 18.27871 | 102.74160 | 34092 ft | 447 kts | 217° |
| 2026-05-05 05:22 | 18.22801 | 102.70363 | 34098 ft | 447 kts | 217° |
| 2026-05-05 05:23 | 18.17737 | 102.66561 | 34101 ft | 447 kts | 217° |
| 2026-05-05 05:23 | 18.12673 | 102.62761 | 34102 ft | 447 kts | 217° |
| 2026-05-05 05:24 | 18.07572 | 102.58934 | 34107 ft | 448 kts | 217° |
| 2026-05-05 05:24 | 18.02491 | 102.55144 | 34111 ft | 448 kts | 214° |
| 2026-05-05 05:24 | 17.99782 | 102.53560 | 35463 ft | 443 kts | 204° |
| 2026-05-05 05:25 | 17.96928 | 102.52363 | 35465 ft | 441 kts | 201° |
| 2026-05-05 05:25 | 17.91217 | 102.50054 | 35464 ft | 439 kts | 201° |
| 2026-05-05 05:26 | 17.85515 | 102.47738 | 35464 ft | 439 kts | 201° |
| 2026-05-05 05:26 | 17.79813 | 102.45426 | 35464 ft | 439 kts | 201° |
| 2026-05-05 05:27 | 17.74103 | 102.43125 | 35464 ft | 439 kts | 201° |
| 2026-05-05 05:27 | 17.65544 | 102.39688 | 35464 ft | 439 kts | 201° |
| 2026-05-05 05:28 | 17.59834 | 102.37397 | 35464 ft | 439 kts | 201° |
| 2026-05-05 05:28 | 17.54128 | 102.35098 | 35463 ft | 439 kts | 201° |
| 2026-05-05 05:29 | 17.48423 | 102.32803 | 35463 ft | 439 kts | 201° |
| 2026-05-05 05:29 | 17.42710 | 102.30515 | 35463 ft | 439 kts | 201° |
| 2026-05-05 05:30 | 17.37004 | 102.28226 | 35463 ft | 439 kts | 201° |
| 2026-05-05 05:30 | 17.31294 | 102.25938 | 35463 ft | 439 kts | 201° |
| 2026-05-05 05:31 | 17.25590 | 102.23653 | 35463 ft | 439 kts | 201° |
| 2026-05-05 05:31 | 17.19881 | 102.21364 | 35462 ft | 439 kts | 201° |
| 2026-05-05 05:32 | 17.14173 | 102.19067 | 35464 ft | 439 kts | 201° |
| 2026-05-05 05:32 | 17.08465 | 102.16789 | 35463 ft | 439 kts | 201° |
| 2026-05-05 05:33 | 17.02751 | 102.14519 | 35463 ft | 439 kts | 201° |
| 2026-05-05 05:33 | 16.97033 | 102.12248 | 35464 ft | 439 kts | 201° |
| 2026-05-05 05:34 | 16.91326 | 102.09966 | 35463 ft | 439 kts | 201° |
| 2026-05-05 05:34 | 16.85620 | 102.07676 | 35463 ft | 439 kts | 201° |
| 2026-05-05 05:35 | 16.79909 | 102.05403 | 35463 ft | 439 kts | 201° |
| 2026-05-05 05:35 | 16.74201 | 102.03136 | 35463 ft | 439 kts | 201° |
| 2026-05-05 05:36 | 16.68489 | 102.00862 | 35463 ft | 439 kts | 201° |
| 2026-05-05 05:36 | 16.62809 | 101.98522 | 35461 ft | 439 kts | 206° |
| 2026-05-05 05:37 | 16.57332 | 101.95704 | 35463 ft | 439 kts | 206° |
| 2026-05-05 05:37 | 16.51815 | 101.92875 | 35463 ft | 439 kts | 206° |
| 2026-05-05 05:38 | 16.46335 | 101.90070 | 35463 ft | 439 kts | 206° |
| 2026-05-05 05:38 | 16.40856 | 101.87257 | 35463 ft | 439 kts | 206° |
| 2026-05-05 05:39 | 16.35376 | 101.84454 | 35463 ft | 439 kts | 206° |
| 2026-05-05 05:39 | 16.29899 | 101.81648 | 35463 ft | 439 kts | 206° |
| 2026-05-05 05:40 | 16.24417 | 101.78840 | 35462 ft | 439 kts | 206° |
| 2026-05-05 05:40 | 16.18936 | 101.76045 | 35463 ft | 439 kts | 206° |
| 2026-05-05 05:41 | 16.13455 | 101.73252 | 35462 ft | 439 kts | 206° |
| 2026-05-05 05:41 | 16.07972 | 101.70454 | 35462 ft | 439 kts | 206° |
| 2026-05-05 05:42 | 16.02489 | 101.67660 | 35462 ft | 439 kts | 206° |
| 2026-05-05 05:42 | 15.97013 | 101.64862 | 35463 ft | 439 kts | 206° |
| 2026-05-05 05:43 | 15.91535 | 101.62067 | 35462 ft | 439 kts | 206° |
| 2026-05-05 05:43 | 15.86056 | 101.59276 | 35462 ft | 439 kts | 206° |
| 2026-05-05 05:44 | 15.80574 | 101.56482 | 35462 ft | 439 kts | 206° |
| 2026-05-05 05:44 | 15.75092 | 101.53698 | 35462 ft | 439 kts | 206° |
| 2026-05-05 05:45 | 15.69612 | 101.50914 | 35462 ft | 439 kts | 206° |
| 2026-05-05 05:45 | 15.64134 | 101.48123 | 35463 ft | 439 kts | 206° |
| 2026-05-05 05:46 | 15.58650 | 101.45340 | 35462 ft | 439 kts | 206° |
| 2026-05-05 05:46 | 15.53170 | 101.42566 | 35462 ft | 439 kts | 206° |
| 2026-05-05 05:47 | 15.47687 | 101.39790 | 35461 ft | 438 kts | 206° |
| 2026-05-05 05:47 | 15.42206 | 101.37013 | 35461 ft | 438 kts | 206° |
| 2026-05-05 05:48 | 15.36728 | 101.34232 | 35461 ft | 438 kts | 206° |
| 2026-05-05 05:48 | 15.31245 | 101.31458 | 35461 ft | 438 kts | 206° |
| 2026-05-05 05:49 | 15.25762 | 101.28686 | 35460 ft | 438 kts | 206° |
| 2026-05-05 05:49 | 15.20283 | 101.25909 | 35460 ft | 438 kts | 206° |
| 2026-05-05 05:50 | 15.14805 | 101.23137 | 35459 ft | 438 kts | 206° |
| 2026-05-05 05:50 | 15.09316 | 101.20376 | 35461 ft | 438 kts | 206° |
| 2026-05-05 05:51 | 15.03836 | 101.17610 | 35458 ft | 438 kts | 206° |
| 2026-05-05 05:51 | 14.98355 | 101.14841 | 35458 ft | 438 kts | 206° |
| 2026-05-05 05:52 | 14.92871 | 101.12080 | 35459 ft | 438 kts | 206° |
| 2026-05-05 05:52 | 14.87388 | 101.09319 | 35457 ft | 438 kts | 206° |
| 2026-05-05 05:53 | 14.81908 | 101.06558 | 35458 ft | 438 kts | 206° |
| 2026-05-05 05:53 | 14.76426 | 101.03799 | 35457 ft | 438 kts | 206° |
| 2026-05-05 05:54 | 14.71841 | 101.01479 | 35457 ft | 438 kts | 206° |
| 2026-05-05 05:54 | 14.66374 | 100.98692 | 35457 ft | 438 kts | 206° |
| 2026-05-05 05:55 | 14.60905 | 100.95905 | 35456 ft | 438 kts | 206° |
| 2026-05-05 05:55 | 14.55434 | 100.93124 | 35456 ft | 438 kts | 206° |
| 2026-05-05 05:56 | 14.49963 | 100.90351 | 35456 ft | 438 kts | 206° |
| 2026-05-05 05:56 | 14.44501 | 100.87571 | 35457 ft | 438 kts | 206° |
| 2026-05-05 05:57 | 14.39033 | 100.84783 | 35455 ft | 438 kts | 206° |
| 2026-05-05 05:57 | 14.33566 | 100.82004 | 35454 ft | 438 kts | 206° |
| 2026-05-05 05:58 | 14.28097 | 100.79233 | 35454 ft | 438 kts | 206° |
| 2026-05-05 05:58 | 14.22627 | 100.76467 | 35453 ft | 438 kts | 206° |
| 2026-05-05 05:59 | 14.17156 | 100.73696 | 35453 ft | 438 kts | 206° |
| 2026-05-05 05:59 | 14.11733 | 100.70947 | 35452 ft | 438 kts | 206° |
| 2026-05-05 06:00 | 14.06261 | 100.68181 | 35451 ft | 438 kts | 206° |
| 2026-05-05 06:00 | 14.00795 | 100.65413 | 35450 ft | 438 kts | 206° |
| 2026-05-05 06:01 | 13.95329 | 100.62645 | 35449 ft | 438 kts | 206° |
| 2026-05-05 06:01 | 13.89848 | 100.59909 | 35449 ft | 438 kts | 202° |
| 2026-05-05 06:02 | 13.84045 | 100.58014 | 35449 ft | 438 kts | 196° |
| 2026-05-05 06:02 | 13.78190 | 100.56266 | 35449 ft | 438 kts | 196° |
| 2026-05-05 06:03 | 13.72339 | 100.54524 | 35449 ft | 438 kts | 196° |
| 2026-05-05 06:03 | 13.66483 | 100.52777 | 35448 ft | 438 kts | 196° |
| 2026-05-05 06:04 | 13.60634 | 100.51028 | 35448 ft | 438 kts | 196° |
| 2026-05-05 06:04 | 13.54787 | 100.49277 | 35447 ft | 438 kts | 196° |
| 2026-05-05 06:05 | 13.48934 | 100.47529 | 35446 ft | 438 kts | 196° |
| 2026-05-05 06:05 | 13.43087 | 100.45780 | 35446 ft | 438 kts | 196° |
| 2026-05-05 06:06 | 13.37238 | 100.44034 | 35447 ft | 438 kts | 196° |
| 2026-05-05 06:06 | 13.31384 | 100.42295 | 35446 ft | 438 kts | 196° |
| 2026-05-05 06:07 | 13.25531 | 100.40558 | 35446 ft | 438 kts | 196° |
| 2026-05-05 06:07 | 13.19644 | 100.38802 | 35446 ft | 438 kts | 196° |
| 2026-05-05 06:08 | 13.13797 | 100.37059 | 33936 ft | 439 kts | 198° |
| 2026-05-05 06:08 | 13.07850 | 100.35282 | 33938 ft | 449 kts | 197° |
| 2026-05-05 06:09 | 13.01825 | 100.33495 | 33937 ft | 451 kts | 197° |
| 2026-05-05 06:09 | 12.95810 | 100.31667 | 33938 ft | 451 kts | 199° |
| 2026-05-05 06:10 | 12.89833 | 100.29714 | 33938 ft | 451 kts | 199° |
| 2026-05-05 06:10 | 12.83864 | 100.27742 | 33936 ft | 451 kts | 199° |
| 2026-05-05 06:11 | 12.77883 | 100.25798 | 33933 ft | 451 kts | 199° |
| 2026-05-05 06:11 | 12.71889 | 100.23881 | 33933 ft | 451 kts | 198° |
| 2026-05-05 06:12 | 12.65898 | 100.21959 | 33934 ft | 451 kts | 199° |
| 2026-05-05 06:12 | 12.59909 | 100.20028 | 33932 ft | 451 kts | 199° |
| 2026-05-05 06:13 | 12.53925 | 100.18103 | 33931 ft | 451 kts | 198° |
| 2026-05-05 06:13 | 12.47937 | 100.16179 | 33926 ft | 451 kts | 198° |
| 2026-05-05 06:14 | 12.41950 | 100.14256 | 33925 ft | 451 kts | 198° |
| 2026-05-05 06:14 | 12.35963 | 100.12334 | 33917 ft | 451 kts | 198° |
| 2026-05-05 06:15 | 12.29974 | 100.10413 | 33914 ft | 451 kts | 198° |
| 2026-05-05 06:15 | 12.23990 | 100.08492 | 33912 ft | 451 kts | 198° |
| 2026-05-05 06:16 | 12.18008 | 100.06572 | 33905 ft | 450 kts | 198° |
| 2026-05-05 06:16 | 12.12038 | 100.04653 | 33908 ft | 450 kts | 198° |
| 2026-05-05 06:17 | 12.06072 | 100.02738 | 33902 ft | 449 kts | 198° |
| 2026-05-05 06:17 | 12.00093 | 100.00869 | 33904 ft | 449 kts | 197° |
| 2026-05-05 06:18 | 11.94080 | 99.99146 | 33902 ft | 449 kts | 196° |
| 2026-05-05 06:18 | 11.88057 | 99.97448 | 33906 ft | 449 kts | 197° |
| 2026-05-05 06:19 | 11.82041 | 99.95732 | 33902 ft | 449 kts | 197° |
| 2026-05-05 06:19 | 11.76036 | 99.93993 | 33906 ft | 448 kts | 197° |
| 2026-05-05 06:20 | 11.70038 | 99.92261 | 33899 ft | 448 kts | 197° |
| 2026-05-05 06:20 | 11.64034 | 99.90531 | 33899 ft | 448 kts | 197° |
| 2026-05-05 06:21 | 11.57994 | 99.88783 | 33900 ft | 448 kts | 197° |
| 2026-05-05 06:21 | 11.51995 | 99.87053 | 33901 ft | 448 kts | 197° |
| 2026-05-05 06:22 | 11.45986 | 99.85328 | 33900 ft | 448 kts | 197° |
| 2026-05-05 06:22 | 11.39985 | 99.83598 | 33904 ft | 448 kts | 197° |
| 2026-05-05 06:23 | 11.33976 | 99.81866 | 33902 ft | 448 kts | 197° |
| 2026-05-05 06:23 | 11.27971 | 99.80136 | 33902 ft | 449 kts | 197° |
| 2026-05-05 06:24 | 11.21966 | 99.78416 | 33903 ft | 449 kts | 196° |
| 2026-05-05 06:24 | 11.15952 | 99.76695 | 33903 ft | 449 kts | 196° |
| 2026-05-05 06:25 | 11.09957 | 99.74918 | 33904 ft | 449 kts | 197° |
| 2026-05-05 06:25 | 11.03994 | 99.73024 | 33904 ft | 449 kts | 198° |
| 2026-05-05 06:26 | 10.98030 | 99.71116 | 33905 ft | 450 kts | 198° |
| 2026-05-05 06:26 | 10.92050 | 99.69236 | 33903 ft | 450 kts | 197° |
| 2026-05-05 06:27 | 10.83066 | 99.66432 | 33901 ft | 450 kts | 197° |
| 2026-05-05 06:28 | 10.77077 | 99.64564 | 33905 ft | 451 kts | 197° |
| 2026-05-05 06:28 | 10.71078 | 99.62687 | 33901 ft | 451 kts | 197° |
| 2026-05-05 06:29 | 10.66095 | 99.61123 | 33902 ft | 451 kts | 197° |
| 2026-05-05 06:29 | 10.60099 | 99.59250 | 33903 ft | 451 kts | 197° |
| 2026-05-05 06:30 | 10.54091 | 99.57376 | 33903 ft | 451 kts | 197° |
| 2026-05-05 06:30 | 10.47078 | 99.55183 | 33901 ft | 451 kts | 197° |
| 2026-05-05 06:31 | 10.42087 | 99.53623 | 33902 ft | 451 kts | 197° |
| 2026-05-05 06:31 | 10.36080 | 99.51748 | 33899 ft | 452 kts | 197° |
| 2026-05-05 06:32 | 10.30063 | 99.49878 | 33897 ft | 452 kts | 197° |
| 2026-05-05 06:32 | 10.24044 | 99.48002 | 33895 ft | 453 kts | 197° |
| 2026-05-05 06:33 | 10.17970 | 99.46107 | 33890 ft | 454 kts | 197° |
| 2026-05-05 06:33 | 10.11917 | 99.44219 | 33888 ft | 456 kts | 197° |
| 2026-05-05 06:34 | 10.05852 | 99.42328 | 33886 ft | 457 kts | 197° |
| 2026-05-05 06:34 | 9.99766 | 99.40437 | 33885 ft | 458 kts | 197° |
| 2026-05-05 06:35 | 9.93669 | 99.38539 | 33885 ft | 459 kts | 197° |
| 2026-05-05 06:35 | 9.87562 | 99.36642 | 33884 ft | 459 kts | 197° |
| 2026-05-05 06:36 | 9.81450 | 99.34741 | 33883 ft | 460 kts | 197° |
| 2026-05-05 06:36 | 9.75329 | 99.32832 | 33885 ft | 461 kts | 197° |
| 2026-05-05 06:37 | 9.69196 | 99.30926 | 33886 ft | 461 kts | 197° |
| 2026-05-05 06:37 | 9.62990 | 99.29004 | 33888 ft | 472 kts | 197° |
| 2026-05-05 06:38 | 9.56666 | 99.27042 | 33882 ft | 477 kts | 196° |
| 2026-05-05 06:38 | 9.50301 | 99.25070 | 33885 ft | 479 kts | 196° |
| 2026-05-05 06:39 | 9.43932 | 99.23089 | 33884 ft | 479 kts | 196° |
| 2026-05-05 06:39 | 9.37563 | 99.21106 | 33880 ft | 478 kts | 196° |
| 2026-05-05 06:40 | 9.31197 | 99.19130 | 33877 ft | 478 kts | 196° |
| 2026-05-05 06:40 | 9.24839 | 99.17162 | 33875 ft | 478 kts | 196° |
| 2026-05-05 06:41 | 9.18481 | 99.15193 | 33874 ft | 477 kts | 196° |
| 2026-05-05 06:41 | 9.12306 | 99.12777 | 33866 ft | 478 kts | 212° |
| 2026-05-05 06:42 | 9.07054 | 99.08653 | 33873 ft | 478 kts | 219° |
| 2026-05-05 06:42 | 9.01889 | 99.04418 | 33878 ft | 478 kts | 219° |
| 2026-05-05 06:43 | 8.96728 | 99.00182 | 33879 ft | 478 kts | 218° |
| 2026-05-05 06:43 | 8.91563 | 98.95956 | 33883 ft | 478 kts | 218° |
| 2026-05-05 06:44 | 8.86390 | 98.91732 | 33883 ft | 478 kts | 218° |
| 2026-05-05 06:44 | 8.81221 | 98.87512 | 33883 ft | 478 kts | 218° |
| 2026-05-05 06:45 | 8.76055 | 98.83287 | 33887 ft | 478 kts | 218° |
| 2026-05-05 06:45 | 8.70873 | 98.79070 | 33887 ft | 478 kts | 218° |
| 2026-05-05 06:46 | 8.65690 | 98.74865 | 33885 ft | 477 kts | 218° |
| 2026-05-05 06:46 | 8.60520 | 98.70661 | 33884 ft | 477 kts | 218° |
| 2026-05-05 06:47 | 8.55358 | 98.66459 | 33887 ft | 476 kts | 218° |
| 2026-05-05 06:47 | 8.50360 | 98.62082 | 33876 ft | 476 kts | 232° |
| 2026-05-05 06:48 | 8.46833 | 98.56421 | 33883 ft | 477 kts | 239° |
| 2026-05-05 06:48 | 8.43543 | 98.50605 | 33885 ft | 477 kts | 240° |
| 2026-05-05 06:49 | 8.40269 | 98.44777 | 33880 ft | 477 kts | 240° |
| 2026-05-05 06:49 | 8.36925 | 98.38938 | 33875 ft | 477 kts | 239° |
| 2026-05-05 06:50 | 8.33575 | 98.33157 | 33875 ft | 477 kts | 239° |
| 2026-05-05 06:50 | 8.30231 | 98.27375 | 33875 ft | 477 kts | 239° |
| 2026-05-05 06:51 | 8.26896 | 98.21593 | 33875 ft | 476 kts | 239° |
| 2026-05-05 06:51 | 8.23561 | 98.15813 | 33875 ft | 476 kts | 239° |
| 2026-05-05 06:52 | 8.20272 | 98.10010 | 33867 ft | 476 kts | 246° |
| 2026-05-05 06:52 | 8.19282 | 98.06841 | 33870 ft | 475 kts | 257° |
| 2026-05-05 06:52 | 8.18303 | 98.03662 | 33863 ft | 475 kts | 243° |
| 2026-05-05 06:52 | 8.16406 | 98.00964 | 33860 ft | 473 kts | 223° |
| 2026-05-05 06:53 | 8.13722 | 97.99087 | 33860 ft | 471 kts | 202° |
| 2026-05-05 06:53 | 8.10614 | 97.98266 | 33856 ft | 454 kts | 181° |
| 2026-05-05 06:53 | 8.07567 | 97.98592 | 33849 ft | 431 kts | 159° |
| 2026-05-05 06:53 | 8.05003 | 97.99957 | 33848 ft | 408 kts | 136° |
| 2026-05-05 06:54 | 8.03271 | 98.02103 | 33845 ft | 386 kts | 112° |
| 2026-05-05 06:54 | 8.02602 | 98.04657 | 33846 ft | 375 kts | 88° |
| 2026-05-05 06:54 | 8.03057 | 98.07211 | 33845 ft | 372 kts | 66° |
| 2026-05-05 06:55 | 8.05231 | 98.11970 | 33847 ft | 374 kts | 65° |
| 2026-05-05 06:55 | 8.07429 | 98.16726 | 33848 ft | 374 kts | 65° |
| 2026-05-05 06:56 | 8.09629 | 98.21485 | 33848 ft | 374 kts | 65° |
| 2026-05-05 06:56 | 8.10538 | 98.23935 | 33842 ft | 373 kts | 79° |
| 2026-05-05 06:56 | 8.10860 | 98.26532 | 33845 ft | 374 kts | 84° |
| 2026-05-05 06:57 | 8.10976 | 98.31746 | 33838 ft | 373 kts | 106° |
| 2026-05-05 06:57 | 8.09798 | 98.34065 | 33836 ft | 376 kts | 130° |
| 2026-05-05 06:57 | 8.07806 | 98.35796 | 33847 ft | 382 kts | 143° |
| 2026-05-05 06:58 | 8.03410 | 98.38833 | 33844 ft | 383 kts | 143° |
| 2026-05-05 06:58 | 7.99157 | 98.42046 | 33842 ft | 381 kts | 135° |
| 2026-05-05 06:59 | 7.95496 | 98.45884 | 33841 ft | 379 kts | 129° |
| 2026-05-05 06:59 | 7.92021 | 98.49881 | 33842 ft | 379 kts | 129° |
| 2026-05-05 07:00 | 7.88478 | 98.53817 | 33841 ft | 379 kts | 130° |
| 2026-05-05 07:00 | 7.84828 | 98.57666 | 33844 ft | 380 kts | 132° |
| 2026-05-05 07:01 | 7.80973 | 98.61367 | 33832 ft | 383 kts | 145° |
| 2026-05-05 07:01 | 7.78589 | 98.62490 | 33829 ft | 388 kts | 163° |
| 2026-05-05 07:01 | 7.75902 | 98.62804 | 33833 ft | 393 kts | 182° |
| 2026-05-05 07:01 | 7.73222 | 98.62222 | 33822 ft | 398 kts | 202° |
| 2026-05-05 07:02 | 7.70835 | 98.60739 | 33821 ft | 402 kts | 222° |
| 2026-05-05 07:02 | 7.69106 | 98.58580 | 33821 ft | 404 kts | 243° |
| 2026-05-05 07:02 | 7.68168 | 98.55889 | 33823 ft | 404 kts | 263° |
| 2026-05-05 07:02 | 7.68182 | 98.53078 | 33824 ft | 401 kts | 283° |
| 2026-05-05 07:03 | 7.69093 | 98.50486 | 33826 ft | 398 kts | 303° |
| 2026-05-05 07:03 | 7.70828 | 98.48305 | 33826 ft | 393 kts | 323° |
| 2026-05-05 07:03 | 7.73116 | 98.46859 | 33825 ft | 387 kts | 342° |
| 2026-05-05 07:03 | 7.75709 | 98.46240 | 33825 ft | 382 kts | 1° |
| 2026-05-05 07:04 | 7.78292 | 98.46471 | 33824 ft | 377 kts | 18° |
| 2026-05-05 07:04 | 7.83204 | 98.48380 | 33833 ft | 376 kts | 26° |
| 2026-05-05 07:05 | 7.88127 | 98.50125 | 33832 ft | 381 kts | 6° |
| 2026-05-05 07:05 | 7.89885 | 98.50084 | 33837 ft | 384 kts | 352° |
| 2026-05-05 07:05 | 7.92428 | 98.49240 | 33830 ft | 390 kts | 332° |
| 2026-05-05 07:05 | 7.94551 | 98.47527 | 33832 ft | 396 kts | 309° |
| 2026-05-05 07:06 | 7.96048 | 98.44149 | 33834 ft | 402 kts | 277° |
| 2026-05-05 07:06 | 7.96068 | 98.42285 | 33834 ft | 403 kts | 261° |
| 2026-05-05 07:06 | 7.95171 | 98.39627 | 33834 ft | 403 kts | 236° |
| 2026-05-05 07:06 | 7.93309 | 98.37555 | 33838 ft | 399 kts | 212° |
| 2026-05-05 07:07 | 7.90816 | 98.36422 | 33832 ft | 393 kts | 187° |
| 2026-05-05 07:07 | 7.88119 | 98.36388 | 33835 ft | 387 kts | 165° |
| 2026-05-05 07:07 | 7.85561 | 98.37176 | 33837 ft | 384 kts | 153° |
| 2026-05-05 07:08 | 7.80916 | 98.39809 | 33826 ft | 386 kts | 155° |
| 2026-05-05 07:08 | 7.75905 | 98.41754 | 33825 ft | 383 kts | 144° |
| 2026-05-05 07:08 | 7.73877 | 98.43449 | 33826 ft | 378 kts | 130° |
| 2026-05-05 07:09 | 7.72073 | 98.45389 | 33825 ft | 379 kts | 131° |
| 2026-05-05 07:09 | 7.68910 | 98.49553 | 33821 ft | 373 kts | 110° |
| 2026-05-05 07:09 | 7.68265 | 98.52059 | 33819 ft | 370 kts | 93° |
| 2026-05-05 07:10 | 7.68389 | 98.54635 | 33819 ft | 369 kts | 76° |
| 2026-05-05 07:10 | 7.69251 | 98.57058 | 33820 ft | 369 kts | 60° |
| 2026-05-05 07:10 | 7.70771 | 98.59132 | 33823 ft | 370 kts | 45° |
| 2026-05-05 07:10 | 7.72831 | 98.60699 | 33824 ft | 373 kts | 28° |
| 2026-05-05 07:11 | 7.75268 | 98.61612 | 33826 ft | 377 kts | 12° |
| 2026-05-05 07:11 | 7.77890 | 98.61762 | 33824 ft | 382 kts | 355° |
| 2026-05-05 07:11 | 7.80474 | 98.61103 | 33830 ft | 387 kts | 338° |
| 2026-05-05 07:11 | 7.82770 | 98.59671 | 33824 ft | 392 kts | 321° |
| 2026-05-05 07:12 | 7.84806 | 98.57827 | 33829 ft | 395 kts | 318° |
| 2026-05-05 07:12 | 7.88622 | 98.53824 | 33822 ft | 397 kts | 308° |
| 2026-05-05 07:12 | 7.89943 | 98.51373 | 33818 ft | 400 kts | 289° |
| 2026-05-05 07:13 | 7.90491 | 98.48622 | 33817 ft | 403 kts | 272° |
| 2026-05-05 07:13 | 7.90245 | 98.45812 | 33814 ft | 404 kts | 255° |
| 2026-05-05 07:13 | 7.89190 | 98.43203 | 33811 ft | 403 kts | 236° |
| 2026-05-05 07:13 | 7.87391 | 98.41058 | 33813 ft | 400 kts | 217° |
| 2026-05-05 07:14 | 7.85039 | 98.39598 | 33812 ft | 396 kts | 198° |
| 2026-05-05 07:14 | 7.82389 | 98.38936 | 33813 ft | 391 kts | 180° |
| 2026-05-05 07:14 | 7.79697 | 98.39094 | 33816 ft | 386 kts | 163° |
| 2026-05-05 07:14 | 7.77206 | 98.40036 | 33816 ft | 381 kts | 146° |
| 2026-05-05 07:15 | 7.75095 | 98.41614 | 33816 ft | 378 kts | 136° |
| 2026-05-05 07:15 | 7.71302 | 98.45333 | 33817 ft | 378 kts | 131° |
| 2026-05-05 07:15 | 7.69579 | 98.47324 | 33814 ft | 375 kts | 120° |
| 2026-05-05 07:16 | 7.68446 | 98.49669 | 33811 ft | 371 kts | 105° |
| 2026-05-05 07:16 | 7.67982 | 98.52181 | 33810 ft | 370 kts | 90° |
| 2026-05-05 07:16 | 7.68190 | 98.54783 | 33812 ft | 369 kts | 75° |
| 2026-05-05 07:16 | 7.69092 | 98.57197 | 33811 ft | 369 kts | 60° |
| 2026-05-05 07:17 | 7.70637 | 98.59255 | 33813 ft | 371 kts | 44° |
| 2026-05-05 07:17 | 7.72715 | 98.60793 | 33821 ft | 373 kts | 28° |
| 2026-05-05 07:17 | 7.75166 | 98.61677 | 33815 ft | 377 kts | 12° |
| 2026-05-05 07:17 | 7.77794 | 98.61805 | 33822 ft | 382 kts | 355° |
| 2026-05-05 07:18 | 7.80375 | 98.61144 | 33819 ft | 387 kts | 338° |
| 2026-05-05 07:18 | 7.82684 | 98.59728 | 33825 ft | 392 kts | 322° |
| 2026-05-05 07:18 | 7.84731 | 98.57892 | 33820 ft | 395 kts | 318° |
| 2026-05-05 07:19 | 7.88555 | 98.53904 | 33813 ft | 397 kts | 309° |
| 2026-05-05 07:19 | 7.89905 | 98.51473 | 33809 ft | 400 kts | 290° |
| 2026-05-05 07:19 | 7.90486 | 98.48726 | 33805 ft | 403 kts | 273° |
| 2026-05-05 07:19 | 7.90270 | 98.45917 | 33811 ft | 404 kts | 255° |
| 2026-05-05 07:20 | 7.89233 | 98.43299 | 33806 ft | 403 kts | 237° |
| 2026-05-05 07:20 | 7.87454 | 98.41138 | 33805 ft | 400 kts | 218° |
| 2026-05-05 07:20 | 7.85121 | 98.39647 | 33805 ft | 396 kts | 199° |
| 2026-05-05 07:20 | 7.82480 | 98.38950 | 33806 ft | 391 kts | 181° |
| 2026-05-05 07:21 | 7.79788 | 98.39087 | 33806 ft | 386 kts | 164° |
| 2026-05-05 07:21 | 7.77293 | 98.40007 | 33805 ft | 381 kts | 147° |
| 2026-05-05 07:21 | 7.75168 | 98.41570 | 33812 ft | 378 kts | 136° |
| 2026-05-05 07:22 | 7.71392 | 98.45256 | 33809 ft | 378 kts | 131° |
| 2026-05-05 07:22 | 7.68501 | 98.49568 | 33807 ft | 371 kts | 105° |
| 2026-05-05 07:22 | 7.68006 | 98.52110 | 33803 ft | 370 kts | 91° |
| 2026-05-05 07:23 | 7.68180 | 98.54682 | 33803 ft | 369 kts | 76° |
| 2026-05-05 07:23 | 7.69043 | 98.57104 | 33804 ft | 369 kts | 61° |
| 2026-05-05 07:23 | 7.70557 | 98.59187 | 33809 ft | 370 kts | 45° |
| 2026-05-05 07:23 | 7.72616 | 98.60751 | 33809 ft | 373 kts | 28° |
| 2026-05-05 07:24 | 7.75054 | 98.61656 | 33813 ft | 377 kts | 12° |
| 2026-05-05 07:24 | 7.77680 | 98.61819 | 33810 ft | 382 kts | 356° |
| 2026-05-05 07:24 | 7.80266 | 98.61198 | 33808 ft | 386 kts | 339° |
| 2026-05-05 07:24 | 7.82583 | 98.59816 | 33806 ft | 391 kts | 322° |
| 2026-05-05 07:25 | 7.84629 | 98.57993 | 33808 ft | 393 kts | 319° |
| 2026-05-05 07:25 | 7.88457 | 98.54028 | 33803 ft | 396 kts | 310° |
| 2026-05-05 07:25 | 7.89838 | 98.51631 | 33803 ft | 399 kts | 291° |
| 2026-05-05 07:26 | 7.90454 | 98.48905 | 33798 ft | 401 kts | 274° |
| 2026-05-05 07:26 | 7.90279 | 98.46105 | 33795 ft | 402 kts | 256° |
| 2026-05-05 07:26 | 7.89292 | 98.43482 | 33804 ft | 401 kts | 237° |
| 2026-05-05 07:26 | 7.87553 | 98.41301 | 33797 ft | 399 kts | 218° |
| 2026-05-05 07:27 | 7.85254 | 98.39785 | 33790 ft | 395 kts | 200° |
| 2026-05-05 07:27 | 7.82633 | 98.39054 | 33799 ft | 390 kts | 182° |
| 2026-05-05 07:27 | 7.79951 | 98.39152 | 33796 ft | 384 kts | 165° |
| 2026-05-05 07:27 | 7.77453 | 98.40030 | 33796 ft | 379 kts | 148° |
| 2026-05-05 07:28 | 7.75323 | 98.41565 | 33800 ft | 376 kts | 136° |
| 2026-05-05 07:28 | 7.71565 | 98.45231 | 33801 ft | 376 kts | 131° |
| 2026-05-05 07:29 | 7.68634 | 98.49489 | 33795 ft | 370 kts | 106° |
| 2026-05-05 07:29 | 7.68105 | 98.52015 | 33794 ft | 368 kts | 92° |
| 2026-05-05 07:29 | 7.68246 | 98.54579 | 33789 ft | 367 kts | 77° |
| 2026-05-05 07:29 | 7.69078 | 98.57000 | 33794 ft | 367 kts | 61° |
| 2026-05-05 07:30 | 7.70557 | 98.59089 | 33797 ft | 369 kts | 45° |
| 2026-05-05 07:30 | 7.75030 | 98.61628 | 33795 ft | 375 kts | 13° |
| 2026-05-05 07:30 | 7.77609 | 98.61811 | 33799 ft | 380 kts | 356° |
| 2026-05-05 07:31 | 7.80230 | 98.61207 | 33795 ft | 385 kts | 339° |
| 2026-05-05 07:31 | 7.82556 | 98.59847 | 33795 ft | 391 kts | 322° |
| 2026-05-05 07:31 | 7.86551 | 98.56087 | 33808 ft | 395 kts | 316° |
| 2026-05-05 07:32 | 7.89810 | 98.51704 | 33787 ft | 399 kts | 291° |
| 2026-05-05 07:32 | 7.90456 | 98.48947 | 33789 ft | 401 kts | 274° |
| 2026-05-05 07:32 | 7.90297 | 98.46146 | 33789 ft | 402 kts | 256° |
| 2026-05-05 07:33 | 7.89320 | 98.43523 | 33791 ft | 401 kts | 237° |
| 2026-05-05 07:33 | 7.87595 | 98.41335 | 33781 ft | 399 kts | 219° |
| 2026-05-05 07:33 | 7.85306 | 98.39803 | 33786 ft | 395 kts | 200° |
| 2026-05-05 07:33 | 7.82689 | 98.39059 | 33788 ft | 390 kts | 182° |
| 2026-05-05 07:34 | 7.80008 | 98.39140 | 33784 ft | 384 kts | 165° |
| 2026-05-05 07:34 | 7.77505 | 98.40006 | 33786 ft | 379 kts | 148° |
| 2026-05-05 07:34 | 7.75370 | 98.41531 | 33790 ft | 376 kts | 136° |
| 2026-05-05 07:34 | 7.73442 | 98.43313 | 33784 ft | 376 kts | 133° |
| 2026-05-05 07:35 | 7.69858 | 98.47143 | 33787 ft | 374 kts | 122° |
| 2026-05-05 07:35 | 7.68652 | 98.49433 | 33786 ft | 370 kts | 107° |
| 2026-05-05 07:35 | 7.68109 | 98.51948 | 33783 ft | 368 kts | 92° |
| 2026-05-05 07:36 | 7.68225 | 98.54511 | 33787 ft | 367 kts | 78° |
| 2026-05-05 07:36 | 7.69032 | 98.56943 | 33784 ft | 367 kts | 62° |
| 2026-05-05 07:36 | 7.70499 | 98.59044 | 33791 ft | 369 kts | 46° |
| 2026-05-05 07:36 | 7.72516 | 98.60642 | 33789 ft | 372 kts | 30° |
| 2026-05-05 07:37 | 7.74924 | 98.61598 | 33788 ft | 375 kts | 14° |
| 2026-05-05 07:37 | 7.77532 | 98.61818 | 33783 ft | 380 kts | 357° |
| 2026-05-05 07:37 | 7.80127 | 98.61248 | 33788 ft | 385 kts | 340° |
| 2026-05-05 07:37 | 7.82468 | 98.59913 | 33791 ft | 391 kts | 323° |
| 2026-05-05 07:38 | 7.86473 | 98.56168 | 33786 ft | 395 kts | 316° |
| 2026-05-05 07:38 | 7.89784 | 98.51780 | 33782 ft | 399 kts | 291° |
| 2026-05-05 07:39 | 7.90445 | 98.49063 | 33776 ft | 401 kts | 275° |
| 2026-05-05 07:39 | 7.90323 | 98.46262 | 33776 ft | 402 kts | 257° |
| 2026-05-05 07:39 | 7.89383 | 98.43619 | 33775 ft | 401 kts | 238° |
| 2026-05-05 07:39 | 7.87694 | 98.41409 | 33780 ft | 398 kts | 220° |
| 2026-05-05 07:40 | 7.85433 | 98.39850 | 33776 ft | 393 kts | 201° |
| 2026-05-05 07:40 | 7.82835 | 98.39068 | 33778 ft | 388 kts | 183° |
| 2026-05-05 07:40 | 7.80166 | 98.39103 | 33768 ft | 383 kts | 166° |
| 2026-05-05 07:40 | 7.77656 | 98.39919 | 33774 ft | 378 kts | 149° |
| 2026-05-05 07:41 | 7.75505 | 98.41400 | 33774 ft | 374 kts | 137° |
| 2026-05-05 07:41 | 7.73578 | 98.43162 | 33777 ft | 374 kts | 133° |
| 2026-05-05 07:41 | 7.69989 | 98.46952 | 33776 ft | 373 kts | 124° |
| 2026-05-05 07:42 | 7.68727 | 98.49201 | 33773 ft | 368 kts | 108° |
| 2026-05-05 07:42 | 7.68121 | 98.51692 | 33775 ft | 366 kts | 94° |
| 2026-05-05 07:42 | 7.68175 | 98.54249 | 33775 ft | 365 kts | 79° |
| 2026-05-05 07:42 | 7.68907 | 98.56690 | 33771 ft | 365 kts | 64° |
| 2026-05-05 07:43 | 7.69776 | 98.58179 | 33776 ft | 366 kts | 53° |
| 2026-05-05 07:43 | 7.72248 | 98.60485 | 33772 ft | 370 kts | 32° |
| 2026-05-05 07:43 | 7.73809 | 98.61253 | 33781 ft | 372 kts | 21° |
| 2026-05-05 07:43 | 7.76347 | 98.61805 | 33781 ft | 376 kts | 5° |
| 2026-05-05 07:44 | 7.78967 | 98.61600 | 33780 ft | 382 kts | 348° |
| 2026-05-05 07:44 | 7.81443 | 98.60614 | 33783 ft | 387 kts | 330° |
| 2026-05-05 07:44 | 7.85573 | 98.57072 | 33780 ft | 393 kts | 317° |
| 2026-05-05 07:45 | 7.89200 | 98.52953 | 33769 ft | 396 kts | 300° |
| 2026-05-05 07:45 | 7.90221 | 98.50375 | 33764 ft | 398 kts | 282° |
| 2026-05-05 07:45 | 7.90466 | 98.47597 | 33763 ft | 400 kts | 265° |
| 2026-05-05 07:46 | 7.89895 | 98.44860 | 33762 ft | 400 kts | 247° |
| 2026-05-05 07:46 | 7.88528 | 98.42436 | 33763 ft | 398 kts | 227° |
| 2026-05-05 07:46 | 7.86501 | 98.40568 | 33758 ft | 395 kts | 210° |
| 2026-05-05 07:46 | 7.84027 | 98.39427 | 33762 ft | 390 kts | 191° |
| 2026-05-05 07:47 | 7.81360 | 98.39102 | 33760 ft | 385 kts | 173° |
| 2026-05-05 07:47 | 7.78756 | 98.39587 | 33765 ft | 380 kts | 156° |
| 2026-05-05 07:47 | 7.76441 | 98.40808 | 33766 ft | 375 kts | 139° |
| 2026-05-05 07:47 | 7.74462 | 98.42508 | 33766 ft | 374 kts | 134° |
| 2026-05-05 07:48 | 7.70802 | 98.46232 | 33765 ft | 374 kts | 130° |
| 2026-05-05 07:48 | 7.69275 | 98.48320 | 33766 ft | 369 kts | 114° |
| 2026-05-05 07:48 | 7.68403 | 98.50737 | 33764 ft | 367 kts | 99° |
| 2026-05-05 07:49 | 7.68187 | 98.53285 | 33768 ft | 365 kts | 85° |
| 2026-05-05 07:49 | 7.68654 | 98.55788 | 33765 ft | 365 kts | 70° |
| 2026-05-05 07:49 | 7.69797 | 98.58066 | 33764 ft | 366 kts | 54° |
| 2026-05-05 07:49 | 7.71550 | 98.59925 | 33765 ft | 368 kts | 38° |
| 2026-05-05 07:50 | 7.73781 | 98.61207 | 33766 ft | 372 kts | 22° |
| 2026-05-05 07:50 | 7.76307 | 98.61795 | 33769 ft | 376 kts | 5° |
| 2026-05-05 07:50 | 7.78925 | 98.61610 | 33767 ft | 381 kts | 348° |
| 2026-05-05 07:50 | 7.81409 | 98.60635 | 33770 ft | 387 kts | 330° |
| 2026-05-05 07:51 | 7.85563 | 98.57070 | 33772 ft | 393 kts | 317° |
| 2026-05-05 07:51 | 7.89194 | 98.52948 | 33760 ft | 396 kts | 300° |
| 2026-05-05 07:52 | 7.90203 | 98.50405 | 33760 ft | 398 kts | 283° |
| 2026-05-05 07:52 | 7.90457 | 98.47591 | 33753 ft | 400 kts | 265° |
| 2026-05-05 07:52 | 7.89901 | 98.44853 | 33752 ft | 400 kts | 247° |
| 2026-05-05 07:52 | 7.88545 | 98.42425 | 33748 ft | 398 kts | 227° |
| 2026-05-05 07:53 | 7.86514 | 98.40563 | 33747 ft | 394 kts | 209° |
| 2026-05-05 07:53 | 7.84037 | 98.39436 | 33751 ft | 390 kts | 191° |
| 2026-05-05 07:53 | 7.81373 | 98.39119 | 33750 ft | 385 kts | 173° |
| 2026-05-05 07:53 | 7.78765 | 98.39602 | 33751 ft | 379 kts | 156° |
| 2026-05-05 07:54 | 7.76449 | 98.40814 | 33756 ft | 375 kts | 140° |
| 2026-05-05 07:54 | 7.74470 | 98.42513 | 33757 ft | 374 kts | 134° |
| 2026-05-05 07:54 | 7.70812 | 98.46236 | 33757 ft | 373 kts | 130° |
| 2026-05-05 07:55 | 7.69281 | 98.48320 | 33755 ft | 369 kts | 114° |
| 2026-05-05 07:55 | 7.68406 | 98.50734 | 33756 ft | 366 kts | 99° |
| 2026-05-05 07:55 | 7.68190 | 98.53274 | 33754 ft | 364 kts | 85° |
| 2026-05-05 07:55 | 7.68649 | 98.55770 | 33756 ft | 363 kts | 70° |
| 2026-05-05 07:56 | 7.69785 | 98.58041 | 33756 ft | 364 kts | 54° |
| 2026-05-05 07:56 | 7.71522 | 98.59896 | 33755 ft | 367 kts | 38° |
| 2026-05-05 07:56 | 7.73737 | 98.61187 | 33760 ft | 371 kts | 22° |
| 2026-05-05 07:56 | 7.76249 | 98.61787 | 33761 ft | 375 kts | 6° |
| 2026-05-05 07:57 | 7.78863 | 98.61624 | 33762 ft | 380 kts | 348° |
| 2026-05-05 07:57 | 7.81343 | 98.60678 | 33759 ft | 385 kts | 331° |
| 2026-05-05 07:57 | 7.83494 | 98.59047 | 33761 ft | 389 kts | 320° |
| 2026-05-05 07:57 | 7.85475 | 98.57175 | 33760 ft | 391 kts | 317° |
| 2026-05-05 07:58 | 7.89116 | 98.53092 | 33751 ft | 394 kts | 301° |
| 2026-05-05 07:58 | 7.90168 | 98.50541 | 33750 ft | 397 kts | 283° |
| 2026-05-05 07:58 | 7.90449 | 98.47779 | 33743 ft | 398 kts | 266° |
| 2026-05-05 07:59 | 7.89923 | 98.45043 | 33744 ft | 398 kts | 248° |
| 2026-05-05 07:59 | 7.88600 | 98.42611 | 33742 ft | 396 kts | 229° |
| 2026-05-05 07:59 | 7.86598 | 98.40733 | 33741 ft | 393 kts | 210° |
| 2026-05-05 07:59 | 7.84145 | 98.39580 | 33744 ft | 388 kts | 192° |
| 2026-05-05 08:00 | 7.81494 | 98.39228 | 33744 ft | 383 kts | 174° |
| 2026-05-05 08:00 | 7.78896 | 98.39687 | 33750 ft | 378 kts | 156° |
| 2026-05-05 08:00 | 7.76584 | 98.40888 | 33747 ft | 373 kts | 140° |
| 2026-05-05 08:00 | 7.74612 | 98.42573 | 33746 ft | 372 kts | 134° |
| 2026-05-05 08:01 | 7.70970 | 98.46274 | 33753 ft | 372 kts | 130° |
| 2026-05-05 08:01 | 7.69427 | 98.48340 | 33753 ft | 367 kts | 115° |
| 2026-05-05 08:01 | 7.68541 | 98.50736 | 33744 ft | 365 kts | 100° |
| 2026-05-05 08:02 | 7.68308 | 98.53268 | 33745 ft | 363 kts | 85° |
| 2026-05-05 08:02 | 7.68753 | 98.55759 | 33744 ft | 363 kts | 70° |
| 2026-05-05 08:02 | 7.69877 | 98.58030 | 33745 ft | 364 kts | 54° |
| 2026-05-05 08:02 | 7.71636 | 98.59910 | 33750 ft | 366 kts | 38° |
| 2026-05-05 08:03 | 7.73848 | 98.61188 | 33752 ft | 370 kts | 22° |
| 2026-05-05 08:03 | 7.76365 | 98.61774 | 33755 ft | 375 kts | 5° |
| 2026-05-05 08:03 | 7.78971 | 98.61587 | 33752 ft | 380 kts | 348° |
| 2026-05-05 08:03 | 7.81441 | 98.60617 | 33753 ft | 385 kts | 330° |
| 2026-05-05 08:04 | 7.85558 | 98.57089 | 33754 ft | 391 kts | 317° |
| 2026-05-05 08:04 | 7.89175 | 98.52985 | 33741 ft | 394 kts | 300° |
| 2026-05-05 08:05 | 7.90187 | 98.50419 | 33739 ft | 397 kts | 282° |
| 2026-05-05 08:05 | 7.90435 | 98.47651 | 33736 ft | 398 kts | 265° |
| 2026-05-05 08:05 | 7.89882 | 98.44928 | 33737 ft | 398 kts | 247° |
| 2026-05-05 08:05 | 7.88527 | 98.42509 | 33735 ft | 396 kts | 228° |
| 2026-05-05 08:06 | 7.86504 | 98.40659 | 33733 ft | 393 kts | 209° |
| 2026-05-05 08:06 | 7.84033 | 98.39541 | 33733 ft | 388 kts | 191° |
| 2026-05-05 08:06 | 7.81383 | 98.39233 | 33737 ft | 383 kts | 173° |
| 2026-05-05 08:06 | 7.78793 | 98.39730 | 33742 ft | 377 kts | 156° |
| 2026-05-05 08:07 | 7.76498 | 98.40958 | 33742 ft | 373 kts | 139° |
| 2026-05-05 08:07 | 7.74533 | 98.42653 | 33744 ft | 372 kts | 134° |
| 2026-05-05 08:07 | 7.70893 | 98.46354 | 33744 ft | 372 kts | 130° |
| 2026-05-05 08:08 | 7.69371 | 98.48433 | 33740 ft | 367 kts | 114° |
| 2026-05-05 08:08 | 7.68512 | 98.50839 | 33744 ft | 365 kts | 99° |
| 2026-05-05 08:08 | 7.68311 | 98.53374 | 33738 ft | 363 kts | 85° |
| 2026-05-05 08:08 | 7.68788 | 98.55862 | 33740 ft | 363 kts | 70° |
| 2026-05-05 08:09 | 7.69946 | 98.58120 | 33739 ft | 364 kts | 53° |
| 2026-05-05 08:09 | 7.71706 | 98.59954 | 33743 ft | 367 kts | 37° |
| 2026-05-05 08:09 | 7.73940 | 98.61211 | 33746 ft | 371 kts | 21° |
| 2026-05-05 08:09 | 7.76464 | 98.61770 | 33746 ft | 375 kts | 5° |
| 2026-05-05 08:10 | 7.79073 | 98.61557 | 33746 ft | 380 kts | 347° |
| 2026-05-05 08:10 | 7.81535 | 98.60560 | 33743 ft | 386 kts | 330° |
| 2026-05-05 08:10 | 7.85636 | 98.57009 | 33742 ft | 391 kts | 317° |
| 2026-05-05 08:11 | 7.89226 | 98.52896 | 33733 ft | 393 kts | 300° |
| 2026-05-05 08:11 | 7.90208 | 98.50328 | 33729 ft | 395 kts | 282° |
| 2026-05-05 08:11 | 7.90422 | 98.47569 | 33725 ft | 396 kts | 264° |
| 2026-05-05 08:12 | 7.89833 | 98.44869 | 33725 ft | 396 kts | 246° |
| 2026-05-05 08:12 | 7.88452 | 98.42482 | 33732 ft | 394 kts | 227° |
| 2026-05-05 08:12 | 7.86417 | 98.40663 | 33719 ft | 391 kts | 208° |
| 2026-05-05 08:12 | 7.83947 | 98.39574 | 33724 ft | 386 kts | 190° |
| 2026-05-05 08:13 | 7.81308 | 98.39291 | 33725 ft | 381 kts | 172° |
| 2026-05-05 08:13 | 7.78741 | 98.39813 | 33728 ft | 375 kts | 155° |
| 2026-05-05 08:13 | 7.76469 | 98.41064 | 33728 ft | 371 kts | 139° |
| 2026-05-05 08:13 | 7.74498 | 98.42782 | 33728 ft | 370 kts | 134° |
| 2026-05-05 08:14 | 7.70887 | 98.46479 | 33729 ft | 370 kts | 130° |
| 2026-05-05 08:14 | 7.69414 | 98.48538 | 33724 ft | 365 kts | 114° |
| 2026-05-05 08:14 | 7.68571 | 98.50932 | 33733 ft | 363 kts | 99° |
| 2026-05-05 08:15 | 7.68378 | 98.53458 | 33726 ft | 362 kts | 84° |
| 2026-05-05 08:15 | 7.68879 | 98.55966 | 33727 ft | 361 kts | 69° |
| 2026-05-05 08:15 | 7.70051 | 98.58203 | 33727 ft | 363 kts | 53° |
| 2026-05-05 08:15 | 7.71824 | 98.60012 | 33727 ft | 365 kts | 37° |
| 2026-05-05 08:16 | 7.74065 | 98.61237 | 33725 ft | 369 kts | 20° |
| 2026-05-05 08:16 | 7.76587 | 98.61762 | 33724 ft | 374 kts | 4° |
| 2026-05-05 08:16 | 7.79186 | 98.61518 | 33728 ft | 379 kts | 347° |
| 2026-05-05 08:16 | 7.81628 | 98.60492 | 33729 ft | 384 kts | 329° |
| 2026-05-05 08:17 | 7.85702 | 98.56943 | 33727 ft | 389 kts | 317° |
| 2026-05-05 08:17 | 7.89262 | 98.52831 | 33720 ft | 392 kts | 299° |
| 2026-05-05 08:18 | 7.90221 | 98.50255 | 33717 ft | 395 kts | 281° |
| 2026-05-05 08:18 | 7.90401 | 98.47495 | 33713 ft | 396 kts | 264° |
| 2026-05-05 08:18 | 7.90075 | 98.45689 | 33713 ft | 396 kts | 252° |
| 2026-05-05 08:18 | 7.88919 | 98.43180 | 33716 ft | 395 kts | 233° |
| 2026-05-05 08:19 | 7.87059 | 98.41174 | 33717 ft | 392 kts | 214° |
| 2026-05-05 08:19 | 7.84691 | 98.39867 | 33710 ft | 387 kts | 195° |
| 2026-05-05 08:19 | 7.82074 | 98.39365 | 33713 ft | 382 kts | 177° |
| 2026-05-05 08:19 | 7.79462 | 98.39668 | 33718 ft | 377 kts | 160° |
| 2026-05-05 08:20 | 7.77094 | 98.40717 | 33715 ft | 366 kts | 143° |
| 2026-05-05 08:20 | 7.75129 | 98.42277 | 33699 ft | 356 kts | 135° |
| 2026-05-05 08:20 | 7.71623 | 98.45740 | 33700 ft | 349 kts | 131° |
| 2026-05-05 08:21 | 7.70015 | 98.47575 | 33484 ft | 351 kts | 120° |
| 2026-05-05 08:21 | 7.68930 | 98.49746 | 33062 ft | 343 kts | 105° |
| 2026-05-05 08:21 | 7.68513 | 98.52081 | 32604 ft | 335 kts | 83° |
| 2026-05-05 08:21 | 7.69413 | 98.54140 | 31821 ft | 332 kts | 32° |
| 2026-05-05 08:22 | 7.71670 | 98.54405 | 28669 ft | 362 kts | 331° |
| 2026-05-05 08:22 | 7.73063 | 98.52383 | 20900 ft | 365 kts | 259° |
| 2026-05-05 08:22 | 7.71281 | 98.51318 | 8347 ft | 329 kts | 147° |
| 2026-05-05 08:22 | 7.70439 | 98.52781 | 71 ft | 128 kts | 122° |
| 2026-05-05 08:23 | 7.70301 | 98.52953 | 9 ft | 0 kts | 142° |